You seem to have your browser language set as English. Would you like the website to be translated for a better experience?

English

Rebuilding Hualien, Taiwan Together | Natural8 will DOUBLE all donations | Get Entered into an Exclusive Flipout | Make a Difference Today!

Lưu ý : Giải đấu này hiện đã kết thúc

winter giveaway series 2023

Loạt sự kiện Winter Giveaway 2023

Hô, hô, hô! Ông già Noel của Natural8 đang mang niềm vui lễ hội với tinh thần hào phóng trong năm nay! Hãy tận hưởng tổng giải thưởng đảm bảo khổng lồ lên đến $50,000,000 trong mùa này, cùng với thêm $5,000,000 trong các giải freeroll và add-on.

$1M GTD Freeroll & $4M in Add Ons

1 Triệu đô la GTD Freeroll & 4 Triệu trong Add Ons

Như một biểu hiện của sự biết ơn trong mùa lễ này, chúng tôi có các phần quà đặc biệt dành cho tất cả những người chơi tuyệt vời của chúng tôi!

$1,000,000 Happy New Year Freeroll

$1.000.000 Freeroll Mừng Năm Mới

Freeroll lớn nhất trong lịch sử của Natural8!

Một lời cảm ơn lớn ĐẾN TẤT CẢ MỌI NGƯỜI đã làm cho năm 2023 trở nên đặc biệt!

Tham gia giải freeroll trị giá $1 triệu đô la - Mở cho tất cả các người chơi.

Có sẵn hàng ngày từ ngày 20 tháng 12 năm 2023 đến ngày 1 tháng 1 năm 2024.

plus
$4,000,000 in Free Add-ons

Cho đi nhiều giá trị hơn!

Những giải đấu yêu thích của bạn hiện đang có thêm 10% giá trị!

$4 triệu trong các phần thưởng bổ sung miễn phí đang chờ đợi bạn.

Kiểm tra sảnh chờ giải đấu ngay bây giờ!

Các Sự kiện Đặc biệt

Christmas Day Mystery Bounty

Hãy mở những món quà thưởng của bạn!

Ngày 25 tháng 12 năm 2023, 18:00 UTC

$125 Buy-In

Giải thưởng đảm bảo: 1.000.000 USD

Global MILLION$ New Year Bounty Bash

Join the global New Year celebration!

Ngày 7 tháng 1 năm 2024, 20:30 UTC

$50 Buy-In

Giải thưởng đảm bảo: 1.000.000 USD

Sự kiện Omaholic MILLION$ New Year Bounty Bash

Khám phá và mở quà tặng tiền thưởng Omaholic của bạn!

Ngày 7 tháng 1 năm 2024, 20:30 UTC

$54 Buy-In

Đảm bảo 250.000 USD

Sự kiện chung kết lớn của Loạt sự kiện Khuyến mãi Đặc biệt Mùa Đông

Khởi động năm 2024 theo phong cách LỚN!

Ngày 15 tháng 1 năm 2024, 18:00 UTC

$250 Buy-In

Đảm bảo $2,024,000

Lịch trình Series

DATE DAY UTC EVENT BUY-IN GTD
Dec 10 Sun 18:30 #4: $400 "Winter is Coming" Opener [Day 1, 6-Max] $400 $1,000,000
Dec 11 Mon 12:30 #4: $400 "Winter is Coming" Opener [Day 1, 6-Max] $400 $1,000,000
Dec 11 Mon 13:30 #11: $125 Christmas Day Mystery Bounty [Stage 1] $125 $1,000,000
Dec 11 Mon 18:30 #4: $400 "Winter is Coming" Opener [Day 1, 6-Max] $400 $1,000,000
Dec 11 Mon 19:30 #11: $125 Christmas Day Mystery Bounty [Stage 1] $125 $1,000,000
Dec 12 Tue 12:30 #4: $400 "Winter is Coming" Opener [Day 1, 6-Max] $400 $1,000,000
Dec 12 Tue 13:30 #11: $125 Christmas Day Mystery Bounty [Stage 1] $125 $1,000,000
Dec 12 Tue 18:30 #4: $400 "Winter is Coming" Opener [Day 1, 6-Max] $400 $1,000,000
Dec 12 Tue 19:30 #11: $125 Christmas Day Mystery Bounty [Stage 1] $125 $1,000,000
Dec 13 Wed 12:30 #4: $400 "Winter is Coming" Opener [Day 1, 6-Max] $400 $1,000,000
Dec 13 Wed 13:30 #11: $125 Christmas Day Mystery Bounty [Stage 1] $125 $1,000,000
Dec 13 Wed 18:30 #4: $400 "Winter is Coming" Opener [Day 1, 6-Max] $400 $1,000,000
Dec 13 Wed 19:30 #11: $125 Christmas Day Mystery Bounty [Stage 1] $125 $1,000,000
Dec 14 Thu 12:30 #4: $400 "Winter is Coming" Opener [Day 1, 6-Max] $400 $1,000,000
Dec 14 Thu 13:30 #11: $125 Christmas Day Mystery Bounty [Stage 1] $125 $1,000,000
Dec 14 Thu 14:00 $30 Daily Merrython $30 $15,000
Dec 14 Thu 15:30 $12.90 Bounty Hunters Holiday Special $12.90 $50,000
Dec 14 Thu 17:00 $250 Daily Main Event [Winter Freezeout] $250 $25,000
Dec 14 Thu 18:00 $150 Rotating Main Event with Special Names $150 $100,000
Dec 14 Thu 18:00 $15 Rotating MIni Main Event with Special Names $15 $50,000
Dec 14 Thu 18:30 #4: $400 "Winter is Coming" Opener [Day 1, 6-Max] $400 $1,000,000
Dec 14 Thu 19:30 $108 Bounty Hunters Brrrrr! [Winter Freezeout] $108 $20,000
Dec 14 Thu 19:30 #11: $125 Christmas Day Mystery Bounty [Stage 1] $125 $1,000,000
Dec 14 Thu 21:00 $215 Holiday Heater $215 $20,000
Dec 14 Thu 22:00 $64.50 Snowy SUPER SIX Bounty Turbo $64.50 $20,000
Dec 14 Thu 23:00 $50 Holiday Saver [Winter Freezeout] $50 $10,000
Dec 15 Fri 00:00 $25 Winter Tick Tock BOOM $25 $10,000
Dec 15 Fri 01:00 $108 Santa's Speed Racer $108 $10,000
Dec 15 Fri 12:30 #4: $400 "Winter is Coming" Opener [Day 1, 6-Max] $400 $1,000,000
Dec 15 Fri 13:30 #11: $125 Christmas Day Mystery Bounty [Stage 1] $125 $1,000,000
Dec 15 Fri 14:00 $30 Daily Merrython $30 $15,000
Dec 15 Fri 15:30 $12.90 Bounty Hunters Holiday Special $12.90 $50,000
Dec 15 Fri 17:00 $250 Daily Main Event [Winter Freezeout] $250 $25,000
Dec 15 Fri 18:00 $150 Rotating Main Event with Special Names $150 $100,000
Dec 15 Fri 18:00 $15 Rotating MIni Main Event with Special Names $15 $50,000
Dec 15 Fri 18:00 #1: $210 Season's Greetings Opener [Mystery Bounty] $210 $500,000
Dec 15 Fri 18:30 #4: $400 "Winter is Coming" Opener [Day 1, 6-Max] $400 $1,000,000
Dec 15 Fri 19:30 $108 Bounty Hunters Brrrrr! [Winter Freezeout] $108 $20,000
Dec 15 Fri 19:30 #11: $125 Christmas Day Mystery Bounty [Stage 1] $125 $1,000,000
Dec 15 Fri 21:00 $215 Holiday Heater $215 $20,000
Dec 15 Fri 22:00 $64.50 Snowy SUPER SIX Bounty Turbo $64.50 $20,000
Dec 15 Fri 23:00 $50 Holiday Saver [Winter Freezeout] $50 $10,000
Dec 16 Sat 00:00 $25 Winter Tick Tock BOOM $25 $10,000
Dec 16 Sat 01:00 $108 Santa's Speed Racer $108 $10,000
Dec 16 Sat 12:30 #4: $400 "Winter is Coming" Opener [Day 1, 6-Max] $400 $1,000,000
Dec 16 Sat 13:30 #11: $125 Christmas Day Mystery Bounty [Stage 1] $125 $1,000,000
Dec 16 Sat 14:00 $30 Daily Merrython $30 $15,000
Dec 16 Sat 15:30 $12.90 Bounty Hunters Holiday Special $12.90 $50,000
Dec 16 Sat 17:00 $250 Daily Main Event [Winter Freezeout] $250 $25,000
Dec 16 Sat 18:00 $150 Rotating Main Event with Special Names $150 $100,000
Dec 16 Sat 18:00 $15 Rotating MIni Main Event with Special Names $15 $50,000
Dec 16 Sat 18:00 #2: $525 Omaholic Snow Bounty $525 $200,000
Dec 16 Sat 18:30 #4: $400 "Winter is Coming" Opener [Day 1, 6-Max] $400 $1,000,000
Dec 16 Sat 19:30 $108 Bounty Hunters Brrrrr! [Winter Freezeout] $108 $20,000
Dec 16 Sat 19:30 #11: $125 Christmas Day Mystery Bounty [Stage 1] $125 $1,000,000
Dec 16 Sat 21:00 $215 Holiday Heater $215 $20,000
Dec 16 Sat 22:00 $64.50 Snowy SUPER SIX Bounty Turbo $64.50 $20,000
Dec 16 Sat 23:00 $50 Holiday Saver [Winter Freezeout] $50 $10,000
Dec 17 Sun 00:00 $25 Winter Tick Tock BOOM $25 $10,000
Dec 17 Sun 00:30 #4: $400 "Winter is Coming" Opener [Day 1, 6-Max] $400 $1,000,000
Dec 17 Sun 01:00 $108 Santa's Speed Racer $108 $10,000
Dec 17 Sun 12:00 $125 Sunday Winter Kick-Off $125 $75,000
Dec 17 Sun 12:30 #4: $400 "Winter is Coming" Opener [Day 1, 6-Max] $400 $1,000,000
Dec 17 Sun 13:00 $25 Sunday MERRY Monster Stack $25 $75,000
Dec 17 Sun 13:30 #11: $125 Christmas Day Mystery Bounty [Stage 1] $125 $1,000,000
Dec 17 Sun 14:00 $300 Sunday Merrython $300 $75,000
Dec 17 Sun 14:30 $85.50 Bounty Blast $85.50 $75,000
Dec 17 Sun 15:00 $125 Grand Winter Prix $125 $150,000
Dec 17 Sun 15:30 $44 Bounty Frozen FORTY STACK $44 $200,000
Dec 17 Sun 16:00 $88 Sunday CRAZY EIGHTS $88 $88,000
Dec 17 Sun 16:30 $54 Bounty Hunters MAIN EVENT $54 $500,000
Dec 17 Sun 17:00 #3: $1,050 GGMasters HR Winter Freezeout $1,050 $1,000,000
Dec 17 Sun 17:30 $215 Bounty Winter BIG GAMES $215 $300,000
Dec 17 Sun 17:40 $54 Omaholic Bounty SNOW Showdown $54 $25,000
Dec 17 Sun 18:00 $36.50 Sunday SNOW GIANT $36.50 $150,000
Dec 17 Sun 18:30 $320 GGMasters Bounty Winter FREEZEOUT $320 $350,000
Dec 17 Sun 18:30 #4: $400 "Winter is Coming" Opener [Day 1, 6-Max] $400 $1,000,000
Dec 17 Sun 19:00 $125 Sunday HUNDRED Stack $125 $150,000
Dec 17 Sun 19:30 $215 Omholic Bounty MAIN EVENT $215 $50,000
Dec 17 Sun 19:30 #11: $125 Christmas Day Mystery Bounty [Stage 1] $125 $1,000,000
Dec 17 Sun 20:00 $77 LUCKY SEVENS Superstack Turbo $77 $100,000
Dec 17 Sun 21:00 $250 Sunday Cooler [Bounty Turbo] $250 $125,000
Dec 17 Sun 22:00 $64.50 Snowy SUPER SIX Bounty Turbo $64.50 $60,000
Dec 17 Sun 23:00 $50 Sunday Saver [Winter Freezeout] $50 $50,000
Dec 18 Mon 00:00 $25 Winter Tick Tock BOOM $25 $100,000
Dec 18 Mon 00:30 #4: $400 "Winter is Coming" Opener [Day 1, 6-Max] $400 $1,000,000
Dec 18 Mon 01:00 $108 Santa's Speed Racer $108 $125,000
Dec 18 Mon 03:30 #4: $400 "Winter is Coming" Opener [Day 1, 6-Max] $400 $1,000,000
Dec 18 Mon 06:30 #4: $400 "Winter is Coming" Opener [Day 1, 6-Max] $400 $1,000,000
Dec 18 Mon 09:30 #4: $400 "Winter is Coming" Opener [Day 1, 6-Max] $400 $1,000,000
Dec 18 Mon 10:30 #11: $125 Christmas Day Mystery Bounty [Stage 1] $125 $1,000,000
Dec 18 Mon 12:30 #4: $400 "Winter is Coming" Opener [Day 1, 6-Max] $400 $1,000,000
Dec 18 Mon 13:30 #11: $125 Christmas Day Mystery Bounty [Stage 1] $125 $1,000,000
Dec 18 Mon 14:00 $30 Daily Merrython $30 $15,000
Dec 18 Mon 15:30 $12.90 Bounty Hunters Holiday Special $12.90 $50,000
Dec 18 Mon 15:30 #4: $400 "Winter is Coming" Opener [Last Chance, 6-Max] $400 $1,000,000
Dec 18 Mon 16:30 #11: $125 Christmas Day Mystery Bounty [Stage 1] $125 $1,000,000
Dec 18 Mon 17:00 $250 Daily Main Event [Winter Freezeout] $250 $25,000
Dec 18 Mon 18:00 $150 Rotating Main Event with Special Names $150 $100,000
Dec 18 Mon 18:00 $15 Rotating MIni Main Event with Special Names $15 $50,000
Dec 18 Mon 18:00 #4: $400 "Winter is Coming" Opener [Final Day, 6-Max] $400 $1,000,000
Dec 18 Mon 18:30 #24: Global MILLION$ New Year Bounty Bash [Stage 1] $50 $1,000,000
Dec 18 Mon 19:30 $108 Bounty Hunters Brrrrr! [Winter Freezeout] $108 $20,000
Dec 18 Mon 19:30 #11: $125 Christmas Day Mystery Bounty [Stage 1] $125 $1,000,000
Dec 18 Mon 21:00 $215 Holiday Heater $215 $20,000
Dec 18 Mon 22:00 $64.50 Snowy SUPER SIX Bounty Turbo $64.50 $20,000
Dec 18 Mon 22:30 #11: $125 Christmas Day Mystery Bounty [Stage 1] $125 $1,000,000
Dec 18 Mon 23:00 $50 Holiday Saver [Winter Freezeout] $50 $10,000
Dec 19 Tue 00:00 $25 Winter Tick Tock BOOM $25 $10,000
Dec 19 Tue 01:00 $108 Santa's Speed Racer $108 $10,000
Dec 19 Tue 10:30 #11: $125 Christmas Day Mystery Bounty [Stage 1] $125 $1,000,000
Dec 19 Tue 13:30 #11: $125 Christmas Day Mystery Bounty [Stage 1] $125 $1,000,000
Dec 19 Tue 14:00 $30 Daily Merrython $30 $15,000
Dec 19 Tue 15:30 $12.90 Bounty Hunters Holiday Special $12.90 $50,000
Dec 19 Tue 16:30 #11: $125 Christmas Day Mystery Bounty [Stage 1] $125 $1,000,000
Dec 19 Tue 17:00 $250 Daily Main Event [Winter Freezeout] $250 $25,000
Dec 19 Tue 18:00 $150 Rotating Main Event with Special Names $150 $100,000
Dec 19 Tue 18:00 $15 Rotating MIni Main Event with Special Names $15 $50,000
Dec 19 Tue 18:00 #5: $50 Stocking Stuffer Superstack $50 $200,000
Dec 19 Tue 18:30 #24: Global MILLION$ New Year Bounty Bash [Stage 1] $50 $1,000,000
Dec 19 Tue 19:30 $108 Bounty Hunters Brrrrr! [Winter Freezeout] $108 $20,000
Dec 19 Tue 19:30 #11: $125 Christmas Day Mystery Bounty [Stage 1] $125 $1,000,000
Dec 19 Tue 21:00 $215 Holiday Heater $215 $20,000
Dec 19 Tue 22:00 $64.50 Snowy SUPER SIX Bounty Turbo $64.50 $20,000
Dec 19 Tue 22:30 #11: $125 Christmas Day Mystery Bounty [Stage 1] $125 $1,000,000
Dec 19 Tue 23:00 $50 Holiday Saver [Winter Freezeout] $50 $10,000
Dec 20 Wed 00:00 $25 Winter Tick Tock BOOM $25 $10,000
Dec 20 Wed 01:00 $108 Santa's Speed Racer $108 $10,000
Dec 20 Wed 10:30 #11: $125 Christmas Day Mystery Bounty [Stage 1] $125 $1,000,000
Dec 20 Wed 13:30 #11: $125 Christmas Day Mystery Bounty [Stage 1] $125 $1,000,000
Dec 20 Wed 14:00 $30 Daily Merrython $30 $15,000
Dec 20 Wed 15:30 $12.90 Bounty Hunters Holiday Special $12.90 $50,000
Dec 20 Wed 16:30 #11: $125 Christmas Day Mystery Bounty [Stage 1] $125 $1,000,000
Dec 20 Wed 17:00 $250 Daily Main Event [Winter Freezeout] $250 $25,000
Dec 20 Wed 18:00 $150 Rotating Main Event with Special Names $150 $100,000
Dec 20 Wed 18:00 $15 Rotating MIni Main Event with Special Names $15 $50,000
Dec 20 Wed 18:00 #6: $200 Santa's Sled Ultra Deepstack Turbo $200 $200,000
Dec 20 Wed 18:30 #24: Global MILLION$ New Year Bounty Bash [Stage 1] $50 $1,000,000
Dec 20 Wed 19:30 $108 Bounty Hunters Brrrrr! [Winter Freezeout] $108 $20,000
Dec 20 Wed 19:30 #11: $125 Christmas Day Mystery Bounty [Stage 1] $125 $1,000,000
Dec 20 Wed 21:00 $215 Holiday Heater $215 $20,000
Dec 20 Wed 22:00 $64.50 Snowy SUPER SIX Bounty Turbo $64.50 $20,000
Dec 20 Wed 22:30 #11: $125 Christmas Day Mystery Bounty [Stage 1] $125 $1,000,000
Dec 20 Wed 23:00 $50 Holiday Saver [Winter Freezeout] $50 $10,000
Dec 21 Thu 00:00 $25 Winter Tick Tock BOOM $25 $10,000
Dec 21 Thu 01:00 $108 Santa's Speed Racer $108 $10,000
Dec 21 Thu 10:30 #11: $125 Christmas Day Mystery Bounty [Stage 1] $125 $1,000,000
Dec 21 Thu 13:30 #11: $125 Christmas Day Mystery Bounty [Stage 1] $125 $1,000,000
Dec 21 Thu 14:00 $30 Daily Merrython $30 $15,000
Dec 21 Thu 15:30 $12.90 Bounty Hunters Holiday Special $12.90 $50,000
Dec 21 Thu 16:30 #11: $125 Christmas Day Mystery Bounty [Stage 1] $125 $1,000,000
Dec 21 Thu 17:00 $250 Daily Main Event [Winter Freezeout] $250 $25,000
Dec 21 Thu 18:00 $150 Rotating Main Event with Special Names $150 $100,000
Dec 21 Thu 18:00 $15 Rotating MIni Main Event with Special Names $15 $50,000
Dec 21 Thu 18:00 #7: $1,050 Naughty or Nice Bounty $1,050 $500,000
Dec 21 Thu 18:30 #24: Global MILLION$ New Year Bounty Bash [Stage 1] $50 $1,000,000
Dec 21 Thu 19:30 $108 Bounty Hunters Brrrrr! [Winter Freezeout] $108 $20,000
Dec 21 Thu 19:30 #11: $125 Christmas Day Mystery Bounty [Stage 1] $125 $1,000,000
Dec 21 Thu 21:00 $215 Holiday Heater $215 $20,000
Dec 21 Thu 22:00 $64.50 Snowy SUPER SIX Bounty Turbo $64.50 $20,000
Dec 21 Thu 22:30 #11: $125 Christmas Day Mystery Bounty [Stage 1] $125 $1,000,000
Dec 21 Thu 23:00 $50 Holiday Saver [Winter Freezeout] $50 $10,000
Dec 22 Fri 00:00 $25 Winter Tick Tock BOOM $25 $10,000
Dec 22 Fri 01:00 $108 Santa's Speed Racer $108 $10,000
Dec 22 Fri 10:30 #11: $125 Christmas Day Mystery Bounty [Stage 1] $125 $1,000,000
Dec 22 Fri 13:30 #11: $125 Christmas Day Mystery Bounty [Stage 1] $125 $1,000,000
Dec 22 Fri 14:00 $30 Daily Merrython $30 $15,000
Dec 22 Fri 15:30 $12.90 Bounty Hunters Holiday Special $12.90 $50,000
Dec 22 Fri 16:30 #11: $125 Christmas Day Mystery Bounty [Stage 1] $125 $1,000,000
Dec 22 Fri 17:00 $250 Daily Main Event [Winter Freezeout] $250 $25,000
Dec 22 Fri 18:00 $150 Rotating Main Event with Special Names $150 $100,000
Dec 22 Fri 18:00 $15 Rotating MIni Main Event with Special Names $15 $50,000
Dec 22 Fri 18:00 #8: $54 Friday Night Snowball Fight [Bounty 6-Max] $54 $150,000
Dec 22 Fri 18:30 #24: Global MILLION$ New Year Bounty Bash [Stage 1] $50 $1,000,000
Dec 22 Fri 19:30 $108 Bounty Hunters Brrrrr! [Winter Freezeout] $108 $20,000
Dec 22 Fri 19:30 #11: $125 Christmas Day Mystery Bounty [Stage 1] $125 $1,000,000
Dec 22 Fri 21:00 $215 Holiday Heater $215 $20,000
Dec 22 Fri 22:00 $64.50 Snowy SUPER SIX Bounty Turbo $64.50 $20,000
Dec 22 Fri 22:30 #11: $125 Christmas Day Mystery Bounty [Stage 1] $125 $1,000,000
Dec 22 Fri 23:00 $50 Holiday Saver [Winter Freezeout] $50 $10,000
Dec 23 Sat 00:00 $25 Winter Tick Tock BOOM $25 $10,000
Dec 23 Sat 01:00 $108 Santa's Speed Racer $108 $10,000
Dec 23 Sat 10:30 #11: $125 Christmas Day Mystery Bounty [Stage 1] $125 $1,000,000
Dec 23 Sat 13:30 #11: $125 Christmas Day Mystery Bounty [Stage 1] $125 $1,000,000
Dec 23 Sat 14:00 $30 Daily Merrython $30 $15,000
Dec 23 Sat 15:30 $12.90 Bounty Hunters Holiday Special $12.90 $50,000
Dec 23 Sat 16:30 #11: $125 Christmas Day Mystery Bounty [Stage 1] $125 $1,000,000
Dec 23 Sat 17:00 $250 Daily Main Event [Winter Freezeout] $250 $25,000
Dec 23 Sat 18:00 $150 Rotating Main Event with Special Names $150 $100,000
Dec 23 Sat 18:00 $15 Rotating MIni Main Event with Special Names $15 $50,000
Dec 23 Sat 18:00 #9: $300 Christmas Carol Triple Chance [3-Stack] $300 $200,000
Dec 23 Sat 18:30 #24: Global MILLION$ New Year Bounty Bash [Stage 1] $50 $1,000,000
Dec 23 Sat 19:30 $108 Bounty Hunters Brrrrr! [Winter Freezeout] $108 $20,000
Dec 23 Sat 19:30 #11: $125 Christmas Day Mystery Bounty [Stage 1] $125 $1,000,000
Dec 23 Sat 21:00 $215 Holiday Heater $215 $20,000
Dec 23 Sat 22:00 $64.50 Snowy SUPER SIX Bounty Turbo $64.50 $20,000
Dec 23 Sat 22:30 #11: $125 Christmas Day Mystery Bounty [Stage 1] $125 $1,000,000
Dec 23 Sat 23:00 $50 Holiday Saver [Winter Freezeout] $50 $10,000
Dec 24 Sun 00:00 $25 Winter Tick Tock BOOM $25 $10,000
Dec 24 Sun 01:00 $108 Santa's Speed Racer $108 $10,000
Dec 24 Sun 10:30 #11: $125 Christmas Day Mystery Bounty [Stage 1] $125 $1,000,000
Dec 24 Sun 12:00 $125 Sunday Winter Kick-Off $125 $75,000
Dec 24 Sun 13:00 $25 Sunday MERRY Monster Stack $25 $75,000
Dec 24 Sun 13:30 #11: $125 Christmas Day Mystery Bounty [Stage 1] $125 $1,000,000
Dec 24 Sun 14:00 $300 Sunday Merrython $300 $75,000
Dec 24 Sun 14:30 $85.50 Bounty Blast $85.50 $75,000
Dec 24 Sun 15:00 $125 Grand Winter Prix $125 $150,000
Dec 24 Sun 15:30 $44 Bounty Frozen FORTY STACK $44 $200,000
Dec 24 Sun 16:00 $88 Sunday CRAZY EIGHTS $88 $88,000
Dec 24 Sun 16:30 $54 Bounty Hunters MAIN EVENT $54 $500,000
Dec 24 Sun 16:30 #11: $125 Christmas Day Mystery Bounty [Stage 1] $125 $1,000,000
Dec 24 Sun 17:30 $215 Bounty Winter BIG GAMES $215 $300,000
Dec 24 Sun 17:40 $54 Omaholic Bounty SNOW Showdown $54 $25,000
Dec 24 Sun 18:00 $36.50 Sunday SNOW GIANT $36.50 $150,000
Dec 24 Sun 18:00 #10: $25 Secret Santa Sunday [Mystery Bounty] $25 $250,000
Dec 24 Sun 18:30 $320 GGMasters Bounty Winter FREEZEOUT $320 $350,000
Dec 24 Sun 18:30 #24: Global MILLION$ New Year Bounty Bash [Stage 1] $50 $1,000,000
Dec 24 Sun 19:00 $125 Sunday HUNDRED Stack $125 $150,000
Dec 24 Sun 19:30 $215 Omholic Bounty MAIN EVENT $215 $50,000
Dec 24 Sun 19:30 #11: $125 Christmas Day Mystery Bounty [Stage 1] $125 $1,000,000
Dec 24 Sun 20:00 $77 LUCKY SEVENS Superstack Turbo $77 $100,000
Dec 24 Sun 21:00 $250 Sunday Cooler [Bounty Turbo] $250 $125,000
Dec 24 Sun 22:00 $64.50 Snowy SUPER SIX Bounty Turbo $64.50 $60,000
Dec 24 Sun 22:30 #11: $125 Christmas Day Mystery Bounty [Stage 1] $125 $1,000,000
Dec 24 Sun 23:00 $50 Sunday Saver [Winter Freezeout] $50 $50,000
Dec 25 Mon 00:00 $25 Winter Tick Tock BOOM $25 $100,000
Dec 25 Mon 01:00 $108 Santa's Speed Racer $108 $125,000
Dec 25 Mon 01:30 #11: $125 Christmas Day Mystery Bounty [Stage 1] $125 $1,000,000
Dec 25 Mon 04:30 #11: $125 Christmas Day Mystery Bounty [Stage 1] $125 $1,000,000
Dec 25 Mon 07:30 #11: $125 Christmas Day Mystery Bounty [Stage 1] $125 $1,000,000
Dec 25 Mon 10:30 #11: $125 Christmas Day Mystery Bounty [Stage 1] $125 $1,000,000
Dec 25 Mon 12:30 #24: Global MILLION$ New Year Bounty Bash [Stage 1] $50 $1,000,000
Dec 25 Mon 13:30 #11: $125 Christmas Day Mystery Bounty [Stage 1] $125 $1,000,000
Dec 25 Mon 14:00 $30 Daily Merrython $30 $15,000
Dec 25 Mon 15:30 $12.90 Bounty Hunters Holiday Special $12.90 $50,000
Dec 25 Mon 15:30 #11: $125 Christmas Day Mystery Bounty [Last Chance] $125 $1,000,000
Dec 25 Mon 17:00 $250 Daily Main Event [Winter Freezeout] $250 $25,000
Dec 25 Mon 18:00 $150 Rotating Main Event with Special Names $150 $100,000
Dec 25 Mon 18:00 $15 Rotating MIni Main Event with Special Names $15 $50,000
Dec 25 Mon 18:00 #11: $125 Christmas Day Mystery Bounty [Final Stage] $125 $1,000,000
Dec 25 Mon 18:30 #24: Global MILLION$ New Year Bounty Bash [Stage 1] $50 $1,000,000
Dec 25 Mon 19:30 $108 Bounty Hunters Brrrrr! [Winter Freezeout] $108 $20,000
Dec 25 Mon 21:00 $215 Holiday Heater $215 $20,000
Dec 25 Mon 22:00 $64.50 Snowy SUPER SIX Bounty Turbo $64.50 $20,000
Dec 25 Mon 23:00 $50 Holiday Saver [Winter Freezeout] $50 $10,000
Dec 26 Tue 00:00 $25 Winter Tick Tock BOOM $25 $10,000
Dec 26 Tue 00:00 #18: Happy New Year Freeroll [Day 1] $0 $1,000,000
Dec 26 Tue 01:00 $108 Santa's Speed Racer $108 $10,000
Dec 26 Tue 12:30 #24: Global MILLION$ New Year Bounty Bash [Stage 1] $50 $1,000,000
Dec 26 Tue 14:00 $30 Daily Merrython $30 $15,000
Dec 26 Tue 15:30 $12.90 Bounty Hunters Holiday Special $12.90 $50,000
Dec 26 Tue 17:00 $250 Daily Main Event [Winter Freezeout] $250 $25,000
Dec 26 Tue 18:00 $150 Rotating Main Event with Special Names $150 $100,000
Dec 26 Tue 18:00 $15 Rotating MIni Main Event with Special Names $15 $50,000
Dec 26 Tue 18:00 #12: $215 Boxing Day Bounty Bash [6-Max] $215 $500,000
Dec 26 Tue 18:30 #24: Global MILLION$ New Year Bounty Bash [Stage 1] $50 $1,000,000
Dec 26 Tue 19:30 $108 Bounty Hunters Brrrrr! [Winter Freezeout] $108 $20,000
Dec 26 Tue 21:00 $215 Holiday Heater $215 $20,000
Dec 26 Tue 22:00 $64.50 Snowy SUPER SIX Bounty Turbo $64.50 $20,000
Dec 26 Tue 23:00 $50 Holiday Saver [Winter Freezeout] $50 $10,000
Dec 27 Wed 00:00 $25 Winter Tick Tock BOOM $25 $10,000
Dec 27 Wed 00:00 #15: $25 Flip & Go Ho Ho Ho Friday [Flip Stage] $25 $100,000
Dec 27 Wed 00:20 #15: $25 Flip & Go Ho Ho Ho Friday [Flip Stage] $25 $100,000
Dec 27 Wed 00:40 #15: $25 Flip & Go Ho Ho Ho Friday [Flip Stage] $25 $100,000
Dec 27 Wed 01:00 $108 Santa's Speed Racer $108 $10,000
Dec 27 Wed 01:00 #15: $25 Flip & Go Ho Ho Ho Friday [Flip Stage] $25 $100,000
Dec 27 Wed 01:20 #15: $25 Flip & Go Ho Ho Ho Friday [Flip Stage] $25 $100,000
Dec 27 Wed 01:40 #15: $25 Flip & Go Ho Ho Ho Friday [Flip Stage] $25 $100,000
Dec 27 Wed 02:00 #15: $25 Flip & Go Ho Ho Ho Friday [Flip Stage] $25 $100,000
Dec 27 Wed 02:20 #15: $25 Flip & Go Ho Ho Ho Friday [Flip Stage] $25 $100,000
Dec 27 Wed 02:40 #15: $25 Flip & Go Ho Ho Ho Friday [Flip Stage] $25 $100,000
Dec 27 Wed 03:00 #15: $25 Flip & Go Ho Ho Ho Friday [Flip Stage] $25 $100,000
Dec 27 Wed 03:20 #15: $25 Flip & Go Ho Ho Ho Friday [Flip Stage] $25 $100,000
Dec 27 Wed 03:40 #15: $25 Flip & Go Ho Ho Ho Friday [Flip Stage] $25 $100,000
Dec 27 Wed 04:00 #15: $25 Flip & Go Ho Ho Ho Friday [Flip Stage] $25 $100,000
Dec 27 Wed 04:20 #15: $25 Flip & Go Ho Ho Ho Friday [Flip Stage] $25 $100,000
Dec 27 Wed 04:40 #15: $25 Flip & Go Ho Ho Ho Friday [Flip Stage] $25 $100,000
Dec 27 Wed 05:00 #15: $25 Flip & Go Ho Ho Ho Friday [Flip Stage] $25 $100,000
Dec 27 Wed 05:20 #15: $25 Flip & Go Ho Ho Ho Friday [Flip Stage] $25 $100,000
Dec 27 Wed 05:40 #15: $25 Flip & Go Ho Ho Ho Friday [Flip Stage] $25 $100,000
Dec 27 Wed 06:00 #15: $25 Flip & Go Ho Ho Ho Friday [Flip Stage] $25 $100,000
Dec 27 Wed 06:20 #15: $25 Flip & Go Ho Ho Ho Friday [Flip Stage] $25 $100,000
Dec 27 Wed 06:40 #15: $25 Flip & Go Ho Ho Ho Friday [Flip Stage] $25 $100,000
Dec 27 Wed 07:00 #15: $25 Flip & Go Ho Ho Ho Friday [Flip Stage] $25 $100,000
Dec 27 Wed 07:20 #15: $25 Flip & Go Ho Ho Ho Friday [Flip Stage] $25 $100,000
Dec 27 Wed 07:40 #15: $25 Flip & Go Ho Ho Ho Friday [Flip Stage] $25 $100,000
Dec 27 Wed 08:00 #15: $25 Flip & Go Ho Ho Ho Friday [Flip Stage] $25 $100,000
Dec 27 Wed 08:20 #15: $25 Flip & Go Ho Ho Ho Friday [Flip Stage] $25 $100,000
Dec 27 Wed 08:40 #15: $25 Flip & Go Ho Ho Ho Friday [Flip Stage] $25 $100,000
Dec 27 Wed 09:00 #15: $25 Flip & Go Ho Ho Ho Friday [Flip Stage] $25 $100,000
Dec 27 Wed 09:20 #15: $25 Flip & Go Ho Ho Ho Friday [Flip Stage] $25 $100,000
Dec 27 Wed 09:40 #15: $25 Flip & Go Ho Ho Ho Friday [Flip Stage] $25 $100,000
Dec 27 Wed 10:00 #15: $25 Flip & Go Ho Ho Ho Friday [Flip Stage] $25 $100,000
Dec 27 Wed 10:20 #15: $25 Flip & Go Ho Ho Ho Friday [Flip Stage] $25 $100,000
Dec 27 Wed 10:40 #15: $25 Flip & Go Ho Ho Ho Friday [Flip Stage] $25 $100,000
Dec 27 Wed 11:00 #15: $25 Flip & Go Ho Ho Ho Friday [Flip Stage] $25 $100,000
Dec 27 Wed 11:20 #15: $25 Flip & Go Ho Ho Ho Friday [Flip Stage] $25 $100,000
Dec 27 Wed 11:40 #15: $25 Flip & Go Ho Ho Ho Friday [Flip Stage] $25 $100,000
Dec 27 Wed 12:00 #15: $25 Flip & Go Ho Ho Ho Friday [Flip Stage] $25 $100,000
Dec 27 Wed 12:20 #15: $25 Flip & Go Ho Ho Ho Friday [Flip Stage] $25 $100,000
Dec 27 Wed 12:30 #24: Global MILLION$ New Year Bounty Bash [Stage 1] $50 $1,000,000
Dec 27 Wed 12:40 #15: $25 Flip & Go Ho Ho Ho Friday [Flip Stage] $25 $100,000
Dec 27 Wed 13:00 #15: $25 Flip & Go Ho Ho Ho Friday [Flip Stage] $25 $100,000
Dec 27 Wed 13:20 #15: $25 Flip & Go Ho Ho Ho Friday [Flip Stage] $25 $100,000
Dec 27 Wed 13:40 #15: $25 Flip & Go Ho Ho Ho Friday [Flip Stage] $25 $100,000
Dec 27 Wed 14:00 $30 Daily Merrython $30 $15,000
Dec 27 Wed 14:00 #15: $25 Flip & Go Ho Ho Ho Friday [Flip Stage] $25 $100,000
Dec 27 Wed 14:20 #15: $25 Flip & Go Ho Ho Ho Friday [Flip Stage] $25 $100,000
Dec 27 Wed 14:40 #15: $25 Flip & Go Ho Ho Ho Friday [Flip Stage] $25 $100,000
Dec 27 Wed 15:00 #15: $25 Flip & Go Ho Ho Ho Friday [Flip Stage] $25 $100,000
Dec 27 Wed 15:20 #15: $25 Flip & Go Ho Ho Ho Friday [Flip Stage] $25 $100,000
Dec 27 Wed 15:30 $12.90 Bounty Hunters Holiday Special $12.90 $50,000
Dec 27 Wed 15:40 #15: $25 Flip & Go Ho Ho Ho Friday [Flip Stage] $25 $100,000
Dec 27 Wed 16:00 #15: $25 Flip & Go Ho Ho Ho Friday [Flip Stage] $25 $100,000
Dec 27 Wed 16:20 #15: $25 Flip & Go Ho Ho Ho Friday [Flip Stage] $25 $100,000
Dec 27 Wed 16:40 #15: $25 Flip & Go Ho Ho Ho Friday [Flip Stage] $25 $100,000
Dec 27 Wed 17:00 $250 Daily Main Event [Winter Freezeout] $250 $25,000
Dec 27 Wed 17:00 #15: $25 Flip & Go Ho Ho Ho Friday [Flip Stage] $25 $100,000
Dec 27 Wed 17:20 #15: $25 Flip & Go Ho Ho Ho Friday [Flip Stage] $25 $100,000
Dec 27 Wed 17:40 #15: $25 Flip & Go Ho Ho Ho Friday [Flip Stage] $25 $100,000
Dec 27 Wed 18:00 $150 Rotating Main Event with Special Names $150 $100,000
Dec 27 Wed 18:00 $15 Rotating MIni Main Event with Special Names $15 $50,000
Dec 27 Wed 18:00 #15: $25 Flip & Go Ho Ho Ho Friday [Flip Stage] $25 $100,000
Dec 27 Wed 18:00 #13: $525 Bounty Hunters Holiday HR $525 $500,000
Dec 27 Wed 18:20 #15: $25 Flip & Go Ho Ho Ho Friday [Flip Stage] $25 $100,000
Dec 27 Wed 18:30 #24: Global MILLION$ New Year Bounty Bash [Stage 1] $50 $1,000,000
Dec 27 Wed 18:40 #15: $25 Flip & Go Ho Ho Ho Friday [Flip Stage] $25 $100,000
Dec 27 Wed 19:00 #15: $25 Flip & Go Ho Ho Ho Friday [Flip Stage] $25 $100,000
Dec 27 Wed 19:20 #15: $25 Flip & Go Ho Ho Ho Friday [Flip Stage] $25 $100,000
Dec 27 Wed 19:30 $108 Bounty Hunters Brrrrr! [Winter Freezeout] $108 $20,000
Dec 27 Wed 19:40 #15: $25 Flip & Go Ho Ho Ho Friday [Flip Stage] $25 $100,000
Dec 27 Wed 20:00 #15: $25 Flip & Go Ho Ho Ho Friday [Flip Stage] $25 $100,000
Dec 27 Wed 20:20 #15: $25 Flip & Go Ho Ho Ho Friday [Flip Stage] $25 $100,000
Dec 27 Wed 20:40 #15: $25 Flip & Go Ho Ho Ho Friday [Flip Stage] $25 $100,000
Dec 27 Wed 21:00 $215 Holiday Heater $215 $20,000
Dec 27 Wed 21:00 #15: $25 Flip & Go Ho Ho Ho Friday [Flip Stage] $25 $100,000
Dec 27 Wed 21:20 #15: $25 Flip & Go Ho Ho Ho Friday [Flip Stage] $25 $100,000
Dec 27 Wed 21:40 #15: $25 Flip & Go Ho Ho Ho Friday [Flip Stage] $25 $100,000
Dec 27 Wed 22:00 $64.50 Snowy SUPER SIX Bounty Turbo $64.50 $20,000
Dec 27 Wed 22:00 #15: $25 Flip & Go Ho Ho Ho Friday [Flip Stage] $25 $100,000
Dec 27 Wed 22:20 #15: $25 Flip & Go Ho Ho Ho Friday [Flip Stage] $25 $100,000
Dec 27 Wed 22:40 #15: $25 Flip & Go Ho Ho Ho Friday [Flip Stage] $25 $100,000
Dec 27 Wed 23:00 $50 Holiday Saver [Winter Freezeout] $50 $10,000
Dec 27 Wed 23:00 #15: $25 Flip & Go Ho Ho Ho Friday [Flip Stage] $25 $100,000
Dec 27 Wed 23:20 #15: $25 Flip & Go Ho Ho Ho Friday [Flip Stage] $25 $100,000
Dec 27 Wed 23:40 #15: $25 Flip & Go Ho Ho Ho Friday [Flip Stage] $25 $100,000
Dec 28 Thu 00:00 $25 Winter Tick Tock BOOM $25 $10,000
Dec 28 Thu 00:00 #15: $25 Flip & Go Ho Ho Ho Friday [Flip Stage] $25 $100,000
Dec 28 Thu 00:20 #15: $25 Flip & Go Ho Ho Ho Friday [Flip Stage] $25 $100,000
Dec 28 Thu 00:40 #15: $25 Flip & Go Ho Ho Ho Friday [Flip Stage] $25 $100,000
Dec 28 Thu 01:00 $108 Santa's Speed Racer $108 $10,000
Dec 28 Thu 01:00 #15: $25 Flip & Go Ho Ho Ho Friday [Flip Stage] $25 $100,000
Dec 28 Thu 01:20 #15: $25 Flip & Go Ho Ho Ho Friday [Flip Stage] $25 $100,000
Dec 28 Thu 01:40 #15: $25 Flip & Go Ho Ho Ho Friday [Flip Stage] $25 $100,000
Dec 28 Thu 02:00 #15: $25 Flip & Go Ho Ho Ho Friday [Flip Stage] $25 $100,000
Dec 28 Thu 02:20 #15: $25 Flip & Go Ho Ho Ho Friday [Flip Stage] $25 $100,000
Dec 28 Thu 02:40 #15: $25 Flip & Go Ho Ho Ho Friday [Flip Stage] $25 $100,000
Dec 28 Thu 03:00 #15: $25 Flip & Go Ho Ho Ho Friday [Flip Stage] $25 $100,000
Dec 28 Thu 03:20 #15: $25 Flip & Go Ho Ho Ho Friday [Flip Stage] $25 $100,000
Dec 28 Thu 03:40 #15: $25 Flip & Go Ho Ho Ho Friday [Flip Stage] $25 $100,000
Dec 28 Thu 04:00 #15: $25 Flip & Go Ho Ho Ho Friday [Flip Stage] $25 $100,000
Dec 28 Thu 04:20 #15: $25 Flip & Go Ho Ho Ho Friday [Flip Stage] $25 $100,000
Dec 28 Thu 04:40 #15: $25 Flip & Go Ho Ho Ho Friday [Flip Stage] $25 $100,000
Dec 28 Thu 05:00 #15: $25 Flip & Go Ho Ho Ho Friday [Flip Stage] $25 $100,000
Dec 28 Thu 05:20 #15: $25 Flip & Go Ho Ho Ho Friday [Flip Stage] $25 $100,000
Dec 28 Thu 05:40 #15: $25 Flip & Go Ho Ho Ho Friday [Flip Stage] $25 $100,000
Dec 28 Thu 06:00 #15: $25 Flip & Go Ho Ho Ho Friday [Flip Stage] $25 $100,000
Dec 28 Thu 06:20 #15: $25 Flip & Go Ho Ho Ho Friday [Flip Stage] $25 $100,000
Dec 28 Thu 06:40 #15: $25 Flip & Go Ho Ho Ho Friday [Flip Stage] $25 $100,000
Dec 28 Thu 07:00 #15: $25 Flip & Go Ho Ho Ho Friday [Flip Stage] $25 $100,000
Dec 28 Thu 07:20 #15: $25 Flip & Go Ho Ho Ho Friday [Flip Stage] $25 $100,000
Dec 28 Thu 07:40 #15: $25 Flip & Go Ho Ho Ho Friday [Flip Stage] $25 $100,000
Dec 28 Thu 08:00 #15: $25 Flip & Go Ho Ho Ho Friday [Flip Stage] $25 $100,000
Dec 28 Thu 08:20 #15: $25 Flip & Go Ho Ho Ho Friday [Flip Stage] $25 $100,000
Dec 28 Thu 08:40 #15: $25 Flip & Go Ho Ho Ho Friday [Flip Stage] $25 $100,000
Dec 28 Thu 09:00 #15: $25 Flip & Go Ho Ho Ho Friday [Flip Stage] $25 $100,000
Dec 28 Thu 09:20 #15: $25 Flip & Go Ho Ho Ho Friday [Flip Stage] $25 $100,000
Dec 28 Thu 09:40 #15: $25 Flip & Go Ho Ho Ho Friday [Flip Stage] $25 $100,000
Dec 28 Thu 10:00 #15: $25 Flip & Go Ho Ho Ho Friday [Flip Stage] $25 $100,000
Dec 28 Thu 10:20 #15: $25 Flip & Go Ho Ho Ho Friday [Flip Stage] $25 $100,000
Dec 28 Thu 10:40 #15: $25 Flip & Go Ho Ho Ho Friday [Flip Stage] $25 $100,000
Dec 28 Thu 11:00 #15: $25 Flip & Go Ho Ho Ho Friday [Flip Stage] $25 $100,000
Dec 28 Thu 11:20 #15: $25 Flip & Go Ho Ho Ho Friday [Flip Stage] $25 $100,000
Dec 28 Thu 11:40 #15: $25 Flip & Go Ho Ho Ho Friday [Flip Stage] $25 $100,000
Dec 28 Thu 12:00 #15: $25 Flip & Go Ho Ho Ho Friday [Flip Stage] $25 $100,000
Dec 28 Thu 12:20 #15: $25 Flip & Go Ho Ho Ho Friday [Flip Stage] $25 $100,000
Dec 28 Thu 12:30 #24: Global MILLION$ New Year Bounty Bash [Stage 1] $50 $1,000,000
Dec 28 Thu 12:40 #15: $25 Flip & Go Ho Ho Ho Friday [Flip Stage] $25 $100,000
Dec 28 Thu 13:00 #15: $25 Flip & Go Ho Ho Ho Friday [Flip Stage] $25 $100,000
Dec 28 Thu 13:20 #15: $25 Flip & Go Ho Ho Ho Friday [Flip Stage] $25 $100,000
Dec 28 Thu 13:40 #15: $25 Flip & Go Ho Ho Ho Friday [Flip Stage] $25 $100,000
Dec 28 Thu 14:00 $30 Daily Merrython $30 $15,000
Dec 28 Thu 14:00 #15: $25 Flip & Go Ho Ho Ho Friday [Flip Stage] $25 $100,000
Dec 28 Thu 14:20 #15: $25 Flip & Go Ho Ho Ho Friday [Flip Stage] $25 $100,000
Dec 28 Thu 14:40 #15: $25 Flip & Go Ho Ho Ho Friday [Flip Stage] $25 $100,000
Dec 28 Thu 15:00 #15: $25 Flip & Go Ho Ho Ho Friday [Flip Stage] $25 $100,000
Dec 28 Thu 15:20 #15: $25 Flip & Go Ho Ho Ho Friday [Flip Stage] $25 $100,000
Dec 28 Thu 15:30 $12.90 Bounty Hunters Holiday Special $12.90 $50,000
Dec 28 Thu 15:40 #15: $25 Flip & Go Ho Ho Ho Friday [Flip Stage] $25 $100,000
Dec 28 Thu 16:00 #15: $25 Flip & Go Ho Ho Ho Friday [Flip Stage] $25 $100,000
Dec 28 Thu 16:20 #15: $25 Flip & Go Ho Ho Ho Friday [Flip Stage] $25 $100,000
Dec 28 Thu 16:40 #15: $25 Flip & Go Ho Ho Ho Friday [Flip Stage] $25 $100,000
Dec 28 Thu 17:00 $250 Daily Main Event [Winter Freezeout] $250 $25,000
Dec 28 Thu 17:00 #15: $25 Flip & Go Ho Ho Ho Friday [Flip Stage] $25 $100,000
Dec 28 Thu 17:20 #15: $25 Flip & Go Ho Ho Ho Friday [Flip Stage] $25 $100,000
Dec 28 Thu 17:40 #15: $25 Flip & Go Ho Ho Ho Friday [Flip Stage] $25 $100,000
Dec 28 Thu 18:00 $150 Rotating Main Event with Special Names $150 $100,000
Dec 28 Thu 18:00 $15 Rotating MIni Main Event with Special Names $15 $50,000
Dec 28 Thu 18:00 #15: $25 Flip & Go Ho Ho Ho Friday [Flip Stage] $25 $100,000
Dec 28 Thu 18:00 #14: $400 Omaholic Thursday Megastack $400 $100,000
Dec 28 Thu 18:20 #15: $25 Flip & Go Ho Ho Ho Friday [Flip Stage] $25 $100,000
Dec 28 Thu 18:30 #24: Global MILLION$ New Year Bounty Bash [Stage 1] $50 $1,000,000
Dec 28 Thu 18:40 #15: $25 Flip & Go Ho Ho Ho Friday [Flip Stage] $25 $100,000
Dec 28 Thu 19:00 #15: $25 Flip & Go Ho Ho Ho Friday [Flip Stage] $25 $100,000
Dec 28 Thu 19:20 #15: $25 Flip & Go Ho Ho Ho Friday [Flip Stage] $25 $100,000
Dec 28 Thu 19:30 $108 Bounty Hunters Brrrrr! [Winter Freezeout] $108 $20,000
Dec 28 Thu 19:40 #15: $25 Flip & Go Ho Ho Ho Friday [Flip Stage] $25 $100,000
Dec 28 Thu 20:00 #15: $25 Flip & Go Ho Ho Ho Friday [Flip Stage] $25 $100,000
Dec 28 Thu 20:20 #15: $25 Flip & Go Ho Ho Ho Friday [Flip Stage] $25 $100,000
Dec 28 Thu 20:40 #15: $25 Flip & Go Ho Ho Ho Friday [Flip Stage] $25 $100,000
Dec 28 Thu 21:00 $215 Holiday Heater $215 $20,000
Dec 28 Thu 21:00 #15: $25 Flip & Go Ho Ho Ho Friday [Flip Stage] $25 $100,000
Dec 28 Thu 21:20 #15: $25 Flip & Go Ho Ho Ho Friday [Flip Stage] $25 $100,000
Dec 28 Thu 21:40 #15: $25 Flip & Go Ho Ho Ho Friday [Flip Stage] $25 $100,000
Dec 28 Thu 22:00 $64.50 Snowy SUPER SIX Bounty Turbo $64.50 $20,000
Dec 28 Thu 22:00 #15: $25 Flip & Go Ho Ho Ho Friday [Flip Stage] $25 $100,000
Dec 28 Thu 22:20 #15: $25 Flip & Go Ho Ho Ho Friday [Flip Stage] $25 $100,000
Dec 28 Thu 22:40 #15: $25 Flip & Go Ho Ho Ho Friday [Flip Stage] $25 $100,000
Dec 28 Thu 23:00 $50 Holiday Saver [Winter Freezeout] $50 $10,000
Dec 28 Thu 23:00 #15: $25 Flip & Go Ho Ho Ho Friday [Flip Stage] $25 $100,000
Dec 28 Thu 23:20 #15: $25 Flip & Go Ho Ho Ho Friday [Flip Stage] $25 $100,000
Dec 28 Thu 23:40 #15: $25 Flip & Go Ho Ho Ho Friday [Flip Stage] $25 $100,000
Dec 29 Fri 00:00 $25 Winter Tick Tock BOOM $25 $10,000
Dec 29 Fri 00:00 #15: $25 Flip & Go Ho Ho Ho Friday [Flip Stage] $25 $100,000
Dec 29 Fri 00:20 #15: $25 Flip & Go Ho Ho Ho Friday [Flip Stage] $25 $100,000
Dec 29 Fri 00:40 #15: $25 Flip & Go Ho Ho Ho Friday [Flip Stage] $25 $100,000
Dec 29 Fri 01:00 $108 Santa's Speed Racer $108 $10,000
Dec 29 Fri 01:00 #15: $25 Flip & Go Ho Ho Ho Friday [Flip Stage] $25 $100,000
Dec 29 Fri 01:20 #15: $25 Flip & Go Ho Ho Ho Friday [Flip Stage] $25 $100,000
Dec 29 Fri 01:40 #15: $25 Flip & Go Ho Ho Ho Friday [Flip Stage] $25 $100,000
Dec 29 Fri 02:00 #15: $25 Flip & Go Ho Ho Ho Friday [Flip Stage] $25 $100,000
Dec 29 Fri 02:20 #15: $25 Flip & Go Ho Ho Ho Friday [Flip Stage] $25 $100,000
Dec 29 Fri 02:40 #15: $25 Flip & Go Ho Ho Ho Friday [Flip Stage] $25 $100,000
Dec 29 Fri 03:00 #15: $25 Flip & Go Ho Ho Ho Friday [Flip Stage] $25 $100,000
Dec 29 Fri 03:20 #15: $25 Flip & Go Ho Ho Ho Friday [Flip Stage] $25 $100,000
Dec 29 Fri 03:40 #15: $25 Flip & Go Ho Ho Ho Friday [Flip Stage] $25 $100,000
Dec 29 Fri 04:00 #15: $25 Flip & Go Ho Ho Ho Friday [Flip Stage] $25 $100,000
Dec 29 Fri 04:20 #15: $25 Flip & Go Ho Ho Ho Friday [Flip Stage] $25 $100,000
Dec 29 Fri 04:40 #15: $25 Flip & Go Ho Ho Ho Friday [Flip Stage] $25 $100,000
Dec 29 Fri 05:00 #15: $25 Flip & Go Ho Ho Ho Friday [Flip Stage] $25 $100,000
Dec 29 Fri 05:20 #15: $25 Flip & Go Ho Ho Ho Friday [Flip Stage] $25 $100,000
Dec 29 Fri 05:40 #15: $25 Flip & Go Ho Ho Ho Friday [Flip Stage] $25 $100,000
Dec 29 Fri 06:00 #15: $25 Flip & Go Ho Ho Ho Friday [Flip Stage] $25 $100,000
Dec 29 Fri 06:20 #15: $25 Flip & Go Ho Ho Ho Friday [Flip Stage] $25 $100,000
Dec 29 Fri 06:40 #15: $25 Flip & Go Ho Ho Ho Friday [Flip Stage] $25 $100,000
Dec 29 Fri 07:00 #15: $25 Flip & Go Ho Ho Ho Friday [Flip Stage] $25 $100,000
Dec 29 Fri 07:20 #15: $25 Flip & Go Ho Ho Ho Friday [Flip Stage] $25 $100,000
Dec 29 Fri 07:40 #15: $25 Flip & Go Ho Ho Ho Friday [Flip Stage] $25 $100,000
Dec 29 Fri 08:00 #15: $25 Flip & Go Ho Ho Ho Friday [Flip Stage] $25 $100,000
Dec 29 Fri 08:20 #15: $25 Flip & Go Ho Ho Ho Friday [Flip Stage] $25 $100,000
Dec 29 Fri 08:40 #15: $25 Flip & Go Ho Ho Ho Friday [Flip Stage] $25 $100,000
Dec 29 Fri 09:00 #15: $25 Flip & Go Ho Ho Ho Friday [Flip Stage] $25 $100,000
Dec 29 Fri 09:20 #15: $25 Flip & Go Ho Ho Ho Friday [Flip Stage] $25 $100,000
Dec 29 Fri 09:40 #15: $25 Flip & Go Ho Ho Ho Friday [Flip Stage] $25 $100,000
Dec 29 Fri 10:00 #15: $25 Flip & Go Ho Ho Ho Friday [Flip Stage] $25 $100,000
Dec 29 Fri 10:20 #15: $25 Flip & Go Ho Ho Ho Friday [Flip Stage] $25 $100,000
Dec 29 Fri 10:40 #15: $25 Flip & Go Ho Ho Ho Friday [Flip Stage] $25 $100,000
Dec 29 Fri 11:00 #15: $25 Flip & Go Ho Ho Ho Friday [Flip Stage] $25 $100,000
Dec 29 Fri 11:20 #15: $25 Flip & Go Ho Ho Ho Friday [Flip Stage] $25 $100,000
Dec 29 Fri 11:40 #15: $25 Flip & Go Ho Ho Ho Friday [Flip Stage] $25 $100,000
Dec 29 Fri 12:00 #15: $25 Flip & Go Ho Ho Ho Friday [Flip Stage] $25 $100,000
Dec 29 Fri 12:20 #15: $25 Flip & Go Ho Ho Ho Friday [Flip Stage] $25 $100,000
Dec 29 Fri 12:30 #24: Global MILLION$ New Year Bounty Bash [Stage 1] $50 $1,000,000
Dec 29 Fri 12:40 #15: $25 Flip & Go Ho Ho Ho Friday [Flip Stage] $25 $100,000
Dec 29 Fri 13:00 #15: $25 Flip & Go Ho Ho Ho Friday [Flip Stage] $25 $100,000
Dec 29 Fri 13:10 #15: $25 Flip & Go Ho Ho Ho Friday [Flip Stage] $25 $100,000
Dec 29 Fri 13:20 #15: $25 Flip & Go Ho Ho Ho Friday [Flip Stage] $25 $100,000
Dec 29 Fri 13:30 #15: $25 Flip & Go Ho Ho Ho Friday [Flip Stage] $25 $100,000
Dec 29 Fri 13:40 #15: $25 Flip & Go Ho Ho Ho Friday [Flip Stage] $25 $100,000
Dec 29 Fri 13:50 #15: $25 Flip & Go Ho Ho Ho Friday [Flip Stage] $25 $100,000
Dec 29 Fri 14:00 $30 Daily Merrython $30 $15,000
Dec 29 Fri 14:00 #15: $25 Flip & Go Ho Ho Ho Friday [Flip Stage] $25 $100,000
Dec 29 Fri 14:10 #15: $25 Flip & Go Ho Ho Ho Friday [Flip Stage] $25 $100,000
Dec 29 Fri 14:20 #15: $25 Flip & Go Ho Ho Ho Friday [Flip Stage] $25 $100,000
Dec 29 Fri 14:30 #15: $25 Flip & Go Ho Ho Ho Friday [Flip Stage] $25 $100,000
Dec 29 Fri 14:40 #15: $25 Flip & Go Ho Ho Ho Friday [Flip Stage] $25 $100,000
Dec 29 Fri 14:50 #15: $25 Flip & Go Ho Ho Ho Friday [Flip Stage] $25 $100,000
Dec 29 Fri 15:00 #15: $25 Flip & Go Ho Ho Ho Friday [Flip Stage] $25 $100,000
Dec 29 Fri 15:10 #15: $25 Flip & Go Ho Ho Ho Friday [Flip Stage] $25 $100,000
Dec 29 Fri 15:20 #15: $25 Flip & Go Ho Ho Ho Friday [Flip Stage] $25 $100,000
Dec 29 Fri 15:30 $12.90 Bounty Hunters Holiday Special $12.90 $50,000
Dec 29 Fri 15:30 #15: $25 Flip & Go Ho Ho Ho Friday [Flip Stage] $25 $100,000
Dec 29 Fri 15:35 #15: $25 Flip & Go Ho Ho Ho Friday [Flip Stage] $25 $100,000
Dec 29 Fri 15:40 #15: $25 Flip & Go Ho Ho Ho Friday [Flip Stage] $25 $100,000
Dec 29 Fri 15:45 #15: $25 Flip & Go Ho Ho Ho Friday [Flip Stage] $25 $100,000
Dec 29 Fri 15:50 #15: $25 Flip & Go Ho Ho Ho Friday [Flip Stage] $25 $100,000
Dec 29 Fri 15:55 #15: $25 Flip & Go Ho Ho Ho Friday [Flip Stage] $25 $100,000
Dec 29 Fri 16:00 #15: $25 Flip & Go Ho Ho Ho Friday [Flip Stage] $25 $100,000
Dec 29 Fri 16:05 #15: $25 Flip & Go Ho Ho Ho Friday [Flip Stage] $25 $100,000
Dec 29 Fri 16:10 #15: $25 Flip & Go Ho Ho Ho Friday [Flip Stage] $25 $100,000
Dec 29 Fri 16:15 #15: $25 Flip & Go Ho Ho Ho Friday [Flip Stage] $25 $100,000
Dec 29 Fri 16:20 #15: $25 Flip & Go Ho Ho Ho Friday [Flip Stage] $25 $100,000
Dec 29 Fri 16:25 #15: $25 Flip & Go Ho Ho Ho Friday [Flip Stage] $25 $100,000
Dec 29 Fri 16:30 #15: $25 Flip & Go Ho Ho Ho Friday [Flip Stage] $25 $100,000
Dec 29 Fri 16:35 #15: $25 Flip & Go Ho Ho Ho Friday [Flip Stage] $25 $100,000
Dec 29 Fri 16:40 #15: $25 Flip & Go Ho Ho Ho Friday [Flip Stage] $25 $100,000
Dec 29 Fri 16:45 #15: $25 Flip & Go Ho Ho Ho Friday [Flip Stage] $25 $100,000
Dec 29 Fri 16:50 #15: $25 Flip & Go Ho Ho Ho Friday [Flip Stage] $25 $100,000
Dec 29 Fri 16:55 #15: $25 Flip & Go Ho Ho Ho Friday [Flip Stage] $25 $100,000
Dec 29 Fri 17:00 $250 Daily Main Event [Winter Freezeout] $250 $25,000
Dec 29 Fri 17:00 #15: $25 Flip & Go Ho Ho Ho Friday [Flip Stage] $25 $100,000
Dec 29 Fri 17:05 #15: $25 Flip & Go Ho Ho Ho Friday [Flip Stage] $25 $100,000
Dec 29 Fri 17:10 #15: $25 Flip & Go Ho Ho Ho Friday [Flip Stage] $25 $100,000
Dec 29 Fri 17:15 #15: $25 Flip & Go Ho Ho Ho Friday [Flip Stage] $25 $100,000
Dec 29 Fri 17:20 #15: $25 Flip & Go Ho Ho Ho Friday [Flip Stage] $25 $100,000
Dec 29 Fri 17:25 #15: $25 Flip & Go Ho Ho Ho Friday [Flip Stage] $25 $100,000
Dec 29 Fri 17:30 #15: $25 Flip & Go Ho Ho Ho Friday [Flip Stage] $25 $100,000
Dec 29 Fri 18:00 $150 Rotating Main Event with Special Names $150 $100,000
Dec 29 Fri 18:00 $15 Rotating MIni Main Event with Special Names $15 $50,000
Dec 29 Fri 18:00 #15: $25 Flip & Go Ho Ho Ho Friday [Go Stage] $25 $100,000
Dec 29 Fri 18:30 #24: Global MILLION$ New Year Bounty Bash [Stage 1] $50 $1,000,000
Dec 29 Fri 19:30 $108 Bounty Hunters Brrrrr! [Winter Freezeout] $108 $20,000
Dec 29 Fri 21:00 $215 Holiday Heater $215 $20,000
Dec 29 Fri 22:00 $64.50 Snowy SUPER SIX Bounty Turbo $64.50 $20,000
Dec 29 Fri 23:00 $50 Holiday Saver [Winter Freezeout] $50 $10,000
Dec 30 Sat 00:00 $25 Winter Tick Tock BOOM $25 $10,000
Dec 30 Sat 01:00 $108 Santa's Speed Racer $108 $10,000
Dec 30 Sat 12:30 #24: Global MILLION$ New Year Bounty Bash [Stage 1] $50 $1,000,000
Dec 30 Sat 14:00 $30 Daily Merrython $30 $15,000
Dec 30 Sat 15:30 $12.90 Bounty Hunters Holiday Special $12.90 $50,000
Dec 30 Sat 17:00 $250 Daily Main Event [Winter Freezeout] $250 $25,000
Dec 30 Sat 18:00 $150 Rotating Main Event with Special Names $150 $100,000
Dec 30 Sat 18:00 $15 Rotating MIni Main Event with Special Names $15 $50,000
Dec 30 Sat 18:00 #16: $108 GGMasters Extra Bonus Bounty $108 $150,000
Dec 30 Sat 18:30 #24: Global MILLION$ New Year Bounty Bash [Stage 1] $50 $1,000,000
Dec 30 Sat 19:30 $108 Bounty Hunters Brrrrr! [Winter Freezeout] $108 $20,000
Dec 30 Sat 21:00 $215 Holiday Heater $215 $20,000
Dec 30 Sat 22:00 $64.50 Snowy SUPER SIX Bounty Turbo $64.50 $20,000
Dec 30 Sat 23:00 $50 Holiday Saver [Winter Freezeout] $50 $10,000
Dec 31 Sun 00:00 $25 Winter Tick Tock BOOM $25 $10,000
Dec 31 Sun 01:00 $108 Santa's Speed Racer $108 $10,000
Dec 31 Sun 12:00 $125 Sunday Winter Kick-Off $125 $75,000
Dec 31 Sun 12:30 #24: Global MILLION$ New Year Bounty Bash [Stage 1] $50 $1,000,000
Dec 31 Sun 13:00 $25 Sunday MERRY Monster Stack $25 $75,000
Dec 31 Sun 14:00 $300 Sunday Merrython $300 $75,000
Dec 31 Sun 14:30 $85.50 Bounty Blast $85.50 $75,000
Dec 31 Sun 15:00 $125 Grand Winter Prix $125 $150,000
Dec 31 Sun 15:30 $44 Bounty Frozen FORTY STACK $44 $200,000
Dec 31 Sun 16:00 $88 Sunday CRAZY EIGHTS $88 $88,000
Dec 31 Sun 16:30 $54 Bounty Hunters MAIN EVENT $54 $500,000
Dec 31 Sun 17:30 $215 Bounty Winter BIG GAMES $215 $300,000
Dec 31 Sun 17:40 $54 Omaholic Bounty SNOW Showdown $54 $25,000
Dec 31 Sun 18:00 $36.50 Sunday SNOW GIANT $36.50 $150,000
Dec 31 Sun 18:00 #17: $11 Sunday Hundred Grand NYE Edition $11 $100,000
Dec 31 Sun 18:30 $320 GGMasters Bounty Winter FREEZEOUT $320 $350,000
Dec 31 Sun 18:30 #24: Global MILLION$ New Year Bounty Bash [Stage 1] $50 $1,000,000
Dec 31 Sun 19:00 $125 Sunday HUNDRED Stack $125 $150,000
Dec 31 Sun 19:30 $215 Omholic Bounty MAIN EVENT $215 $50,000
Dec 31 Sun 20:00 $77 LUCKY SEVENS Superstack Turbo $77 $100,000
Dec 31 Sun 21:00 $250 Sunday Cooler [Bounty Turbo] $250 $125,000
Dec 31 Sun 21:30 #25: Omaholic MILLION$ New Year Bounty Bash [Stage 1] $54 $250,000
Dec 31 Sun 22:00 $64.50 Snowy SUPER SIX Bounty Turbo $64.50 $60,000
Dec 31 Sun 23:00 $50 Sunday Saver [Winter Freezeout] $50 $50,000
Jan 1 Mon 00:00 $25 Winter Tick Tock BOOM $25 $100,000
Jan 1 Mon 00:30 #24: Global MILLION$ New Year Bounty Bash [Stage 1] $50 $1,000,000
Jan 1 Mon 00:30 #25: Omaholic MILLION$ New Year Bounty Bash [Stage 1] $54 $250,000
Jan 1 Mon 01:00 $108 Santa's Speed Racer $108 $125,000
Jan 1 Mon 03:30 #25: Omaholic MILLION$ New Year Bounty Bash [Stage 1] $54 $250,000
Jan 1 Mon 06:30 #24: Global MILLION$ New Year Bounty Bash [Stage 1] $50 $1,000,000
Jan 1 Mon 06:30 #25: Omaholic MILLION$ New Year Bounty Bash [Stage 1] $54 $250,000
Jan 1 Mon 09:30 #25: Omaholic MILLION$ New Year Bounty Bash [Stage 1] $54 $250,000
Jan 1 Mon 12:30 #24: Global MILLION$ New Year Bounty Bash [Stage 1] $50 $1,000,000
Jan 1 Mon 12:30 #25: Omaholic MILLION$ New Year Bounty Bash [Stage 1] $54 $250,000
Jan 1 Mon 13:30 #31: Winter Giveaway Series Grand Finale [Day 1] $250 $2,024,000
Jan 1 Mon 14:00 $30 Daily Merrython $30 $15,000
Jan 1 Mon 15:30 $12.90 Bounty Hunters Holiday Special $12.90 $50,000
Jan 1 Mon 15:30 #25: Omaholic MILLION$ New Year Bounty Bash [Stage 1] $54 $250,000
Jan 1 Mon 16:30 #24: Global MILLION$ New Year Bounty Bash [Stage 1] $50 $1,000,000
Jan 1 Mon 17:00 $250 Daily Main Event [Winter Freezeout] $250 $25,000
Jan 1 Mon 18:00 $150 Rotating Main Event with Special Names $150 $100,000
Jan 1 Mon 18:00 $15 Rotating MIni Main Event with Special Names $15 $50,000
Jan 1 Mon 18:00 #18: Happy New Year Freeroll [Final Day] $0 $1,000,000
Jan 1 Mon 18:30 #25: Omaholic MILLION$ New Year Bounty Bash [Stage 1] $54 $250,000
Jan 1 Mon 18:40 #24: Global MILLION$ New Year Bounty Bash [Stage 1] $50 $1,000,000
Jan 1 Mon 19:30 $108 Bounty Hunters Brrrrr! [Winter Freezeout] $108 $20,000
Jan 1 Mon 19:30 #31: Winter Giveaway Series Grand Finale [Day 1] $250 $2,024,000
Jan 1 Mon 20:30 #24: Global MILLION$ New Year Bounty Bash [Stage 1] $50 $1,000,000
Jan 1 Mon 21:00 $215 Holiday Heater $215 $20,000
Jan 1 Mon 21:30 #25: Omaholic MILLION$ New Year Bounty Bash [Stage 1] $54 $250,000
Jan 1 Mon 22:00 $64.50 Snowy SUPER SIX Bounty Turbo $64.50 $20,000
Jan 1 Mon 22:30 #24: Global MILLION$ New Year Bounty Bash [Stage 1] $50 $1,000,000
Jan 1 Mon 23:00 $50 Holiday Saver [Winter Freezeout] $50 $10,000
Jan 2 Tue 00:00 $25 Winter Tick Tock BOOM $25 $10,000
Jan 2 Tue 00:30 #24: Global MILLION$ New Year Bounty Bash [Stage 1] $50 $1,000,000
Jan 2 Tue 00:30 #25: Omaholic MILLION$ New Year Bounty Bash [Stage 1] $54 $250,000
Jan 2 Tue 01:00 $108 Santa's Speed Racer $108 $10,000
Jan 2 Tue 02:30 #24: Global MILLION$ New Year Bounty Bash [Stage 1] $50 $1,000,000
Jan 2 Tue 03:30 #25: Omaholic MILLION$ New Year Bounty Bash [Stage 1] $54 $250,000
Jan 2 Tue 04:30 #24: Global MILLION$ New Year Bounty Bash [Stage 1] $50 $1,000,000
Jan 2 Tue 06:30 #24: Global MILLION$ New Year Bounty Bash [Stage 1] $50 $1,000,000
Jan 2 Tue 06:30 #25: Omaholic MILLION$ New Year Bounty Bash [Stage 1] $54 $250,000
Jan 2 Tue 08:30 #24: Global MILLION$ New Year Bounty Bash [Stage 1] $50 $1,000,000
Jan 2 Tue 09:30 #25: Omaholic MILLION$ New Year Bounty Bash [Stage 1] $54 $250,000
Jan 2 Tue 10:30 #24: Global MILLION$ New Year Bounty Bash [Stage 1] $50 $1,000,000
Jan 2 Tue 12:30 #24: Global MILLION$ New Year Bounty Bash [Stage 1] $50 $1,000,000
Jan 2 Tue 12:30 #25: Omaholic MILLION$ New Year Bounty Bash [Stage 1] $54 $250,000
Jan 2 Tue 13:30 #31: Winter Giveaway Series Grand Finale [Day 1] $250 $2,024,000
Jan 2 Tue 14:00 $30 Daily Merrython $30 $15,000
Jan 2 Tue 14:30 #24: Global MILLION$ New Year Bounty Bash [Stage 1] $50 $1,000,000
Jan 2 Tue 15:30 $12.90 Bounty Hunters Holiday Special $12.90 $50,000
Jan 2 Tue 15:30 #25: Omaholic MILLION$ New Year Bounty Bash [Stage 1] $54 $250,000
Jan 2 Tue 16:30 #24: Global MILLION$ New Year Bounty Bash [Stage 1] $50 $1,000,000
Jan 2 Tue 17:00 $250 Daily Main Event [Winter Freezeout] $250 $25,000
Jan 2 Tue 18:00 $150 Rotating Main Event with Special Names $150 $100,000
Jan 2 Tue 18:00 $15 Rotating MIni Main Event with Special Names $15 $50,000
Jan 2 Tue 18:00 #19: $50 Merry Marathon $50 $200,000
Jan 2 Tue 18:30 #24: Global MILLION$ New Year Bounty Bash [Stage 1] $50 $1,000,000
Jan 2 Tue 18:30 #25: Omaholic MILLION$ New Year Bounty Bash [Stage 1] $54 $250,000
Jan 2 Tue 19:30 $108 Bounty Hunters Brrrrr! [Winter Freezeout] $108 $20,000
Jan 2 Tue 19:30 #31: Winter Giveaway Series Grand Finale [Day 1] $250 $2,024,000
Jan 2 Tue 20:30 #24: Global MILLION$ New Year Bounty Bash [Stage 1] $50 $1,000,000
Jan 2 Tue 21:00 $215 Holiday Heater $215 $20,000
Jan 2 Tue 21:30 #25: Omaholic MILLION$ New Year Bounty Bash [Stage 1] $54 $250,000
Jan 2 Tue 22:00 $64.50 Snowy SUPER SIX Bounty Turbo $64.50 $20,000
Jan 2 Tue 22:30 #24: Global MILLION$ New Year Bounty Bash [Stage 1] $50 $1,000,000
Jan 2 Tue 23:00 $50 Holiday Saver [Winter Freezeout] $50 $10,000
Jan 3 Wed 00:00 $25 Winter Tick Tock BOOM $25 $10,000
Jan 3 Wed 00:30 #24: Global MILLION$ New Year Bounty Bash [Stage 1] $50 $1,000,000
Jan 3 Wed 00:30 #25: Omaholic MILLION$ New Year Bounty Bash [Stage 1] $54 $250,000
Jan 3 Wed 01:00 $108 Santa's Speed Racer $108 $10,000
Jan 3 Wed 02:30 #24: Global MILLION$ New Year Bounty Bash [Stage 1] $50 $1,000,000
Jan 3 Wed 03:30 #25: Omaholic MILLION$ New Year Bounty Bash [Stage 1] $54 $250,000
Jan 3 Wed 04:30 #24: Global MILLION$ New Year Bounty Bash [Stage 1] $50 $1,000,000
Jan 3 Wed 06:30 #24: Global MILLION$ New Year Bounty Bash [Stage 1] $50 $1,000,000
Jan 3 Wed 06:30 #25: Omaholic MILLION$ New Year Bounty Bash [Stage 1] $54 $250,000
Jan 3 Wed 08:30 #24: Global MILLION$ New Year Bounty Bash [Stage 1] $50 $1,000,000
Jan 3 Wed 09:30 #25: Omaholic MILLION$ New Year Bounty Bash [Stage 1] $54 $250,000
Jan 3 Wed 10:30 #24: Global MILLION$ New Year Bounty Bash [Stage 1] $50 $1,000,000
Jan 3 Wed 12:30 #24: Global MILLION$ New Year Bounty Bash [Stage 1] $50 $1,000,000
Jan 3 Wed 12:30 #25: Omaholic MILLION$ New Year Bounty Bash [Stage 1] $54 $250,000
Jan 3 Wed 13:30 #31: Winter Giveaway Series Grand Finale [Day 1] $250 $2,024,000
Jan 3 Wed 14:00 $30 Daily Merrython $30 $15,000
Jan 3 Wed 14:30 #24: Global MILLION$ New Year Bounty Bash [Stage 1] $50 $1,000,000
Jan 3 Wed 15:30 $12.90 Bounty Hunters Holiday Special $12.90 $50,000
Jan 3 Wed 15:30 #25: Omaholic MILLION$ New Year Bounty Bash [Stage 1] $54 $250,000
Jan 3 Wed 16:30 #24: Global MILLION$ New Year Bounty Bash [Stage 1] $50 $1,000,000
Jan 3 Wed 17:00 $250 Daily Main Event [Winter Freezeout] $250 $25,000
Jan 3 Wed 18:00 $150 Rotating Main Event with Special Names $150 $100,000
Jan 3 Wed 18:00 $15 Rotating MIni Main Event with Special Names $15 $50,000
Jan 3 Wed 18:00 #20: $25 Ultra Stack $25 $100,000
Jan 3 Wed 18:30 #24: Global MILLION$ New Year Bounty Bash [Stage 1] $50 $1,000,000
Jan 3 Wed 18:30 #25: Omaholic MILLION$ New Year Bounty Bash [Stage 1] $54 $250,000
Jan 3 Wed 19:30 $108 Bounty Hunters Brrrrr! [Winter Freezeout] $108 $20,000
Jan 3 Wed 19:30 #31: Winter Giveaway Series Grand Finale [Day 1] $250 $2,024,000
Jan 3 Wed 20:30 #24: Global MILLION$ New Year Bounty Bash [Stage 1] $50 $1,000,000
Jan 3 Wed 21:00 $215 Holiday Heater $215 $20,000
Jan 3 Wed 21:30 #25: Omaholic MILLION$ New Year Bounty Bash [Stage 1] $54 $250,000
Jan 3 Wed 22:00 $64.50 Snowy SUPER SIX Bounty Turbo $64.50 $20,000
Jan 3 Wed 22:30 #24: Global MILLION$ New Year Bounty Bash [Stage 1] $50 $1,000,000
Jan 3 Wed 23:00 $50 Holiday Saver [Winter Freezeout] $50 $10,000
Jan 4 Thu 00:00 $25 Winter Tick Tock BOOM $25 $10,000
Jan 4 Thu 00:30 #24: Global MILLION$ New Year Bounty Bash [Stage 1] $50 $1,000,000
Jan 4 Thu 00:30 #25: Omaholic MILLION$ New Year Bounty Bash [Stage 1] $54 $250,000
Jan 4 Thu 01:00 $108 Santa's Speed Racer $108 $10,000
Jan 4 Thu 02:30 #24: Global MILLION$ New Year Bounty Bash [Stage 1] $50 $1,000,000
Jan 4 Thu 03:30 #25: Omaholic MILLION$ New Year Bounty Bash [Stage 1] $54 $250,000
Jan 4 Thu 04:30 #24: Global MILLION$ New Year Bounty Bash [Stage 1] $50 $1,000,000
Jan 4 Thu 06:30 #24: Global MILLION$ New Year Bounty Bash [Stage 1] $50 $1,000,000
Jan 4 Thu 06:30 #25: Omaholic MILLION$ New Year Bounty Bash [Stage 1] $54 $250,000
Jan 4 Thu 08:30 #24: Global MILLION$ New Year Bounty Bash [Stage 1] $50 $1,000,000
Jan 4 Thu 09:30 #25: Omaholic MILLION$ New Year Bounty Bash [Stage 1] $54 $250,000
Jan 4 Thu 10:30 #24: Global MILLION$ New Year Bounty Bash [Stage 1] $50 $1,000,000
Jan 4 Thu 12:30 #24: Global MILLION$ New Year Bounty Bash [Stage 1] $50 $1,000,000
Jan 4 Thu 12:30 #25: Omaholic MILLION$ New Year Bounty Bash [Stage 1] $54 $250,000
Jan 4 Thu 13:30 #31: Winter Giveaway Series Grand Finale [Day 1] $250 $2,024,000
Jan 4 Thu 14:00 $30 Daily Merrython $30 $15,000
Jan 4 Thu 14:30 #24: Global MILLION$ New Year Bounty Bash [Stage 1] $50 $1,000,000
Jan 4 Thu 15:30 $12.90 Bounty Hunters Holiday Special $12.90 $50,000
Jan 4 Thu 15:30 #25: Omaholic MILLION$ New Year Bounty Bash [Stage 1] $54 $250,000
Jan 4 Thu 16:30 #24: Global MILLION$ New Year Bounty Bash [Stage 1] $50 $1,000,000
Jan 4 Thu 17:00 $250 Daily Main Event [Winter Freezeout] $250 $25,000
Jan 4 Thu 18:00 $150 Rotating Main Event with Special Names $150 $100,000
Jan 4 Thu 18:00 $15 Rotating MIni Main Event with Special Names $15 $50,000
Jan 4 Thu 18:00 #21: $105 Crystal Ball [Mystery Bounty] $105 $300,000
Jan 4 Thu 18:30 #24: Global MILLION$ New Year Bounty Bash [Stage 1] $50 $1,000,000
Jan 4 Thu 18:30 #25: Omaholic MILLION$ New Year Bounty Bash [Stage 1] $54 $250,000
Jan 4 Thu 19:30 $108 Bounty Hunters Brrrrr! [Winter Freezeout] $108 $20,000
Jan 4 Thu 19:30 #31: Winter Giveaway Series Grand Finale [Day 1] $250 $2,024,000
Jan 4 Thu 20:30 #24: Global MILLION$ New Year Bounty Bash [Stage 1] $50 $1,000,000
Jan 4 Thu 21:00 $215 Holiday Heater $215 $20,000
Jan 4 Thu 21:30 #25: Omaholic MILLION$ New Year Bounty Bash [Stage 1] $54 $250,000
Jan 4 Thu 22:00 $64.50 Snowy SUPER SIX Bounty Turbo $64.50 $20,000
Jan 4 Thu 22:30 #24: Global MILLION$ New Year Bounty Bash [Stage 1] $50 $1,000,000
Jan 4 Thu 23:00 $50 Holiday Saver [Winter Freezeout] $50 $10,000
Jan 5 Fri 00:00 $25 Winter Tick Tock BOOM $25 $10,000
Jan 5 Fri 00:30 #24: Global MILLION$ New Year Bounty Bash [Stage 1] $50 $1,000,000
Jan 5 Fri 00:30 #25: Omaholic MILLION$ New Year Bounty Bash [Stage 1] $54 $250,000
Jan 5 Fri 01:00 $108 Santa's Speed Racer $108 $10,000
Jan 5 Fri 02:30 #24: Global MILLION$ New Year Bounty Bash [Stage 1] $50 $1,000,000
Jan 5 Fri 03:30 #25: Omaholic MILLION$ New Year Bounty Bash [Stage 1] $54 $250,000
Jan 5 Fri 04:30 #24: Global MILLION$ New Year Bounty Bash [Stage 1] $50 $1,000,000
Jan 5 Fri 06:30 #24: Global MILLION$ New Year Bounty Bash [Stage 1] $50 $1,000,000
Jan 5 Fri 06:30 #25: Omaholic MILLION$ New Year Bounty Bash [Stage 1] $54 $250,000
Jan 5 Fri 08:30 #24: Global MILLION$ New Year Bounty Bash [Stage 1] $50 $1,000,000
Jan 5 Fri 09:30 #25: Omaholic MILLION$ New Year Bounty Bash [Stage 1] $54 $250,000
Jan 5 Fri 10:30 #24: Global MILLION$ New Year Bounty Bash [Stage 1] $50 $1,000,000
Jan 5 Fri 12:30 #24: Global MILLION$ New Year Bounty Bash [Stage 1] $50 $1,000,000
Jan 5 Fri 12:30 #25: Omaholic MILLION$ New Year Bounty Bash [Stage 1] $54 $250,000
Jan 5 Fri 13:30 #31: Winter Giveaway Series Grand Finale [Day 1] $250 $2,024,000
Jan 5 Fri 14:00 $30 Daily Merrython $30 $15,000
Jan 5 Fri 14:30 #24: Global MILLION$ New Year Bounty Bash [Stage 1] $50 $1,000,000
Jan 5 Fri 15:30 $12.90 Bounty Hunters Holiday Special $12.90 $50,000
Jan 5 Fri 15:30 #25: Omaholic MILLION$ New Year Bounty Bash [Stage 1] $54 $250,000
Jan 5 Fri 16:30 #24: Global MILLION$ New Year Bounty Bash [Stage 1] $50 $1,000,000
Jan 5 Fri 17:00 $250 Daily Main Event [Winter Freezeout] $250 $25,000
Jan 5 Fri 18:00 $150 Rotating Main Event with Special Names $150 $100,000
Jan 5 Fri 18:00 $15 Rotating MIni Main Event with Special Names $15 $50,000
Jan 5 Fri 18:00 #22: $250 TGIF Super Hyper Turbo [6-Max] $250 $50,000
Jan 5 Fri 18:30 #24: Global MILLION$ New Year Bounty Bash [Stage 1] $50 $1,000,000
Jan 5 Fri 18:30 #25: Omaholic MILLION$ New Year Bounty Bash [Stage 1] $54 $250,000
Jan 5 Fri 19:30 $108 Bounty Hunters Brrrrr! [Winter Freezeout] $108 $20,000
Jan 5 Fri 19:30 #31: Winter Giveaway Series Grand Finale [Day 1] $250 $2,024,000
Jan 5 Fri 20:30 #24: Global MILLION$ New Year Bounty Bash [Stage 1] $50 $1,000,000
Jan 5 Fri 21:00 $215 Holiday Heater $215 $20,000
Jan 5 Fri 21:30 #25: Omaholic MILLION$ New Year Bounty Bash [Stage 1] $54 $250,000
Jan 5 Fri 22:00 $64.50 Snowy SUPER SIX Bounty Turbo $64.50 $20,000
Jan 5 Fri 22:30 #24: Global MILLION$ New Year Bounty Bash [Stage 1] $50 $1,000,000
Jan 5 Fri 23:00 $50 Holiday Saver [Winter Freezeout] $50 $10,000
Jan 6 Sat 00:00 $25 Winter Tick Tock BOOM $25 $10,000
Jan 6 Sat 00:30 #24: Global MILLION$ New Year Bounty Bash [Stage 1] $50 $1,000,000
Jan 6 Sat 00:30 #25: Omaholic MILLION$ New Year Bounty Bash [Stage 1] $54 $250,000
Jan 6 Sat 01:00 $108 Santa's Speed Racer $108 $10,000
Jan 6 Sat 02:30 #24: Global MILLION$ New Year Bounty Bash [Stage 1] $50 $1,000,000
Jan 6 Sat 03:30 #25: Omaholic MILLION$ New Year Bounty Bash [Stage 1] $54 $250,000
Jan 6 Sat 04:30 #24: Global MILLION$ New Year Bounty Bash [Stage 1] $50 $1,000,000
Jan 6 Sat 06:30 #24: Global MILLION$ New Year Bounty Bash [Stage 1] $50 $1,000,000
Jan 6 Sat 06:30 #25: Omaholic MILLION$ New Year Bounty Bash [Stage 1] $54 $250,000
Jan 6 Sat 08:30 #24: Global MILLION$ New Year Bounty Bash [Stage 1] $50 $1,000,000
Jan 6 Sat 09:30 #25: Omaholic MILLION$ New Year Bounty Bash [Stage 1] $54 $250,000
Jan 6 Sat 10:30 #24: Global MILLION$ New Year Bounty Bash [Stage 1] $50 $1,000,000
Jan 6 Sat 12:30 #24: Global MILLION$ New Year Bounty Bash [Stage 1] $50 $1,000,000
Jan 6 Sat 12:30 #25: Omaholic MILLION$ New Year Bounty Bash [Stage 1] $54 $250,000
Jan 6 Sat 13:30 #31: Winter Giveaway Series Grand Finale [Day 1] $250 $2,024,000
Jan 6 Sat 14:00 $30 Daily Merrython $30 $15,000
Jan 6 Sat 14:30 #24: Global MILLION$ New Year Bounty Bash [Stage 1] $50 $1,000,000
Jan 6 Sat 15:30 $12.90 Bounty Hunters Holiday Special $12.90 $50,000
Jan 6 Sat 15:30 #25: Omaholic MILLION$ New Year Bounty Bash [Stage 1] $54 $250,000
Jan 6 Sat 16:30 #24: Global MILLION$ New Year Bounty Bash [Stage 1] $50 $1,000,000
Jan 6 Sat 17:00 $250 Daily Main Event [Winter Freezeout] $250 $25,000
Jan 6 Sat 18:00 $150 Rotating Main Event with Special Names $150 $100,000
Jan 6 Sat 18:00 $15 Rotating MIni Main Event with Special Names $15 $50,000
Jan 6 Sat 18:00 #23: $300 Omaholic Triple Chance [3-Stack] $300 $100,000
Jan 6 Sat 18:30 #24: Global MILLION$ New Year Bounty Bash [Stage 1] $50 $1,000,000
Jan 6 Sat 18:30 #25: Omaholic MILLION$ New Year Bounty Bash [Stage 1] $54 $250,000
Jan 6 Sat 19:30 $108 Bounty Hunters Brrrrr! [Winter Freezeout] $108 $20,000
Jan 6 Sat 19:30 #31: Winter Giveaway Series Grand Finale [Day 1] $250 $2,024,000
Jan 6 Sat 20:30 #24: Global MILLION$ New Year Bounty Bash [Stage 1] $50 $1,000,000
Jan 6 Sat 21:00 $215 Holiday Heater $215 $20,000
Jan 6 Sat 21:30 #25: Omaholic MILLION$ New Year Bounty Bash [Stage 1] $54 $250,000
Jan 6 Sat 22:00 $64.50 Snowy SUPER SIX Bounty Turbo $64.50 $20,000
Jan 6 Sat 22:30 #24: Global MILLION$ New Year Bounty Bash [Stage 1] $50 $1,000,000
Jan 6 Sat 23:00 $50 Holiday Saver [Winter Freezeout] $50 $10,000
Jan 7 Sun 00:00 $25 Winter Tick Tock BOOM $25 $10,000
Jan 7 Sun 00:30 #24: Global MILLION$ New Year Bounty Bash [Stage 1] $50 $1,000,000
Jan 7 Sun 00:30 #25: Omaholic MILLION$ New Year Bounty Bash [Stage 1] $54 $250,000
Jan 7 Sun 01:00 $108 Santa's Speed Racer $108 $10,000
Jan 7 Sun 02:30 #24: Global MILLION$ New Year Bounty Bash [Stage 1] $50 $1,000,000
Jan 7 Sun 03:30 #25: Omaholic MILLION$ New Year Bounty Bash [Stage 1] $54 $250,000
Jan 7 Sun 04:30 #24: Global MILLION$ New Year Bounty Bash [Stage 1] $50 $1,000,000
Jan 7 Sun 06:30 #24: Global MILLION$ New Year Bounty Bash [Stage 1] $50 $1,000,000
Jan 7 Sun 06:30 #25: Omaholic MILLION$ New Year Bounty Bash [Stage 1] $54 $250,000
Jan 7 Sun 08:30 #24: Global MILLION$ New Year Bounty Bash [Stage 1] $50 $1,000,000
Jan 7 Sun 09:30 #25: Omaholic MILLION$ New Year Bounty Bash [Stage 1] $54 $250,000
Jan 7 Sun 10:30 #24: Global MILLION$ New Year Bounty Bash [Stage 1] $50 $1,000,000
Jan 7 Sun 12:00 $125 Sunday Winter Kick-Off $125 $75,000
Jan 7 Sun 12:30 #24: Global MILLION$ New Year Bounty Bash [Stage 1] $50 $1,000,000
Jan 7 Sun 12:30 #25: Omaholic MILLION$ New Year Bounty Bash [Stage 1] $54 $250,000
Jan 7 Sun 13:00 $25 Sunday MERRY Monster Stack $25 $75,000
Jan 7 Sun 13:30 #31: Winter Giveaway Series Grand Finale [Day 1] $250 $2,024,000
Jan 7 Sun 14:00 $300 Sunday Merrython $300 $75,000
Jan 7 Sun 14:30 $85.50 Bounty Blast $85.50 $75,000
Jan 7 Sun 14:30 #24: Global MILLION$ New Year Bounty Bash [Stage 1] $50 $1,000,000
Jan 7 Sun 14:30 #25: Omaholic MILLION$ New Year Bounty Bash [Stage 1] $54 $250,000
Jan 7 Sun 15:00 $125 Grand Winter Prix $125 $150,000
Jan 7 Sun 15:30 $44 Bounty Frozen FORTY STACK $44 $200,000
Jan 7 Sun 16:00 $88 Sunday CRAZY EIGHTS $88 $88,000
Jan 7 Sun 16:30 $54 Bounty Hunters MAIN EVENT $54 $500,000
Jan 7 Sun 16:30 #24: Global MILLION$ New Year Bounty Bash [Stage 1] $50 $1,000,000
Jan 7 Sun 16:30 #25: Omaholic MILLION$ New Year Bounty Bash [Stage 1] $54 $250,000
Jan 7 Sun 17:30 $215 Bounty Winter BIG GAMES $215 $300,000
Jan 7 Sun 17:40 $54 Omaholic Bounty SNOW Showdown $54 $25,000
Jan 7 Sun 18:00 $36.50 Sunday SNOW GIANT $36.50 $150,000
Jan 7 Sun 18:00 #24: Global MILLION$ New Year Bounty Bash [Last Chance] $50 $1,000,000
Jan 7 Sun 18:00 #25: Omaholic MILLION$ New Year Bounty Bash [Last Chance] $54 $250,000
Jan 7 Sun 18:30 $320 GGMasters Bounty Winter FREEZEOUT $320 $350,000
Jan 7 Sun 18:40 #25: Omaholic MILLION$ New Year Bounty Bash [Last Minute] $54 $250,000
Jan 7 Sun 18:45 #24: Global MILLION$ New Year Bounty Bash [Last Minute] $50 $1,000,000
Jan 7 Sun 19:00 $125 Sunday HUNDRED Stack $125 $150,000
Jan 7 Sun 19:30 $215 Omholic Bounty MAIN EVENT $215 $50,000
Jan 7 Sun 19:30 #31: Winter Giveaway Series Grand Finale [Day 1] $250 $2,024,000
Jan 7 Sun 20:00 $77 LUCKY SEVENS Superstack Turbo $77 $100,000
Jan 7 Sun 20:30 #24: Global MILLION$ New Year Bounty Bash [Final Stage] $50 $1,000,000
Jan 7 Sun 20:30 #25: Omaholic MILLION$ New Year Bounty Bash [Final Stage] $54 $250,000
Jan 7 Sun 21:00 $250 Sunday Cooler [Bounty Turbo] $250 $125,000
Jan 7 Sun 22:00 $64.50 Snowy SUPER SIX Bounty Turbo $64.50 $60,000
Jan 7 Sun 23:00 $50 Sunday Saver [Winter Freezeout] $50 $50,000
Jan 8 Mon 00:00 $25 Winter Tick Tock BOOM $25 $100,000
Jan 8 Mon 01:00 $108 Santa's Speed Racer $108 $125,000
Jan 8 Mon 10:30 #31: Winter Giveaway Series Grand Finale [Day 1] $250 $2,024,000
Jan 8 Mon 13:30 #31: Winter Giveaway Series Grand Finale [Day 1] $250 $2,024,000
Jan 8 Mon 14:00 $30 Daily Merrython $30 $15,000
Jan 8 Mon 15:30 $12.90 Bounty Hunters Holiday Special $12.90 $50,000
Jan 8 Mon 16:30 #31: Winter Giveaway Series Grand Finale [Day 1] $250 $2,024,000
Jan 8 Mon 17:00 $250 Daily Main Event [Winter Freezeout] $250 $25,000
Jan 8 Mon 18:00 $150 Rotating Main Event with Special Names $150 $100,000
Jan 8 Mon 18:00 $15 Rotating MIni Main Event with Special Names $15 $50,000
Jan 8 Mon 18:00 #26: $88 CRAZY EIGHTS $88 $200,000
Jan 8 Mon 19:30 $108 Bounty Hunters Brrrrr! [Winter Freezeout] $108 $20,000
Jan 8 Mon 19:30 #31: Winter Giveaway Series Grand Finale [Day 1] $250 $2,024,000
Jan 8 Mon 21:00 $215 Holiday Heater $215 $20,000
Jan 8 Mon 22:00 $64.50 Snowy SUPER SIX Bounty Turbo $64.50 $20,000
Jan 8 Mon 22:30 #31: Winter Giveaway Series Grand Finale [Day 1] $250 $2,024,000
Jan 8 Mon 23:00 $50 Holiday Saver [Winter Freezeout] $50 $10,000
Jan 9 Tue 00:00 $25 Winter Tick Tock BOOM $25 $10,000
Jan 9 Tue 01:00 $108 Santa's Speed Racer $108 $10,000
Jan 9 Tue 10:30 #31: Winter Giveaway Series Grand Finale [Day 1] $250 $2,024,000
Jan 9 Tue 13:30 #31: Winter Giveaway Series Grand Finale [Day 1] $250 $2,024,000
Jan 9 Tue 14:00 $30 Daily Merrython $30 $15,000
Jan 9 Tue 15:30 $12.90 Bounty Hunters Holiday Special $12.90 $50,000
Jan 9 Tue 16:30 #31: Winter Giveaway Series Grand Finale [Day 1] $250 $2,024,000
Jan 9 Tue 17:00 $250 Daily Main Event [Winter Freezeout] $250 $25,000
Jan 9 Tue 18:00 $150 Rotating Main Event with Special Names $150 $100,000
Jan 9 Tue 18:00 $15 Rotating MIni Main Event with Special Names $15 $50,000
Jan 9 Tue 18:00 #27: $2,100 Bounty High Roller $2,100 $500,000
Jan 9 Tue 19:30 $108 Bounty Hunters Brrrrr! [Winter Freezeout] $108 $20,000
Jan 9 Tue 19:30 #31: Winter Giveaway Series Grand Finale [Day 1] $250 $2,024,000
Jan 9 Tue 21:00 $215 Holiday Heater $215 $20,000
Jan 9 Tue 22:00 $64.50 Snowy SUPER SIX Bounty Turbo $64.50 $20,000
Jan 9 Tue 22:30 #31: Winter Giveaway Series Grand Finale [Day 1] $250 $2,024,000
Jan 9 Tue 23:00 $50 Holiday Saver [Winter Freezeout] $50 $10,000
Jan 10 Wed 00:00 $25 Winter Tick Tock BOOM $25 $10,000
Jan 10 Wed 01:00 $108 Santa's Speed Racer $108 $10,000
Jan 10 Wed 10:30 #31: Winter Giveaway Series Grand Finale [Day 1] $250 $2,024,000
Jan 10 Wed 13:30 #31: Winter Giveaway Series Grand Finale [Day 1] $250 $2,024,000
Jan 10 Wed 14:00 $30 Daily Merrython $30 $15,000
Jan 10 Wed 15:30 $12.90 Bounty Hunters Holiday Special $12.90 $50,000
Jan 10 Wed 16:30 #31: Winter Giveaway Series Grand Finale [Day 1] $250 $2,024,000
Jan 10 Wed 17:00 $250 Daily Main Event [Winter Freezeout] $250 $25,000
Jan 10 Wed 18:00 $150 Rotating Main Event with Special Names $150 $100,000
Jan 10 Wed 18:00 $15 Rotating MIni Main Event with Special Names $15 $50,000
Jan 10 Wed 18:00 #28: $300 Deepstack [Slower Levels] $300 $200,000
Jan 10 Wed 19:30 $108 Bounty Hunters Brrrrr! [Winter Freezeout] $108 $20,000
Jan 10 Wed 19:30 #31: Winter Giveaway Series Grand Finale [Day 1] $250 $2,024,000
Jan 10 Wed 21:00 $215 Holiday Heater $215 $20,000
Jan 10 Wed 22:00 $64.50 Snowy SUPER SIX Bounty Turbo $64.50 $20,000
Jan 10 Wed 22:30 #31: Winter Giveaway Series Grand Finale [Day 1] $250 $2,024,000
Jan 10 Wed 23:00 $50 Holiday Saver [Winter Freezeout] $50 $10,000
Jan 11 Thu 00:00 $25 Winter Tick Tock BOOM $25 $10,000
Jan 11 Thu 01:00 $108 Santa's Speed Racer $108 $10,000
Jan 11 Thu 10:30 #31: Winter Giveaway Series Grand Finale [Day 1] $250 $2,024,000
Jan 11 Thu 13:30 #31: Winter Giveaway Series Grand Finale [Day 1] $250 $2,024,000
Jan 11 Thu 14:00 $30 Daily Merrython $30 $15,000
Jan 11 Thu 15:30 $12.90 Bounty Hunters Holiday Special $12.90 $50,000
Jan 11 Thu 16:30 #31: Winter Giveaway Series Grand Finale [Day 1] $250 $2,024,000
Jan 11 Thu 17:00 $250 Daily Main Event [Winter Freezeout] $250 $25,000
Jan 11 Thu 18:00 $150 Rotating Main Event with Special Names $150 $100,000
Jan 11 Thu 18:00 $15 Rotating MIni Main Event with Special Names $15 $50,000
Jan 11 Thu 18:00 #29: $54 Bankroll Builder Bounty $54 $250,000
Jan 11 Thu 19:30 $108 Bounty Hunters Brrrrr! [Winter Freezeout] $108 $20,000
Jan 11 Thu 19:30 #31: Winter Giveaway Series Grand Finale [Day 1] $250 $2,024,000
Jan 11 Thu 21:00 $215 Holiday Heater $215 $20,000
Jan 11 Thu 22:00 $64.50 Snowy SUPER SIX Bounty Turbo $64.50 $20,000
Jan 11 Thu 22:30 #31: Winter Giveaway Series Grand Finale [Day 1] $250 $2,024,000
Jan 11 Thu 23:00 $50 Holiday Saver [Winter Freezeout] $50 $10,000
Jan 12 Fri 00:00 $25 Winter Tick Tock BOOM $25 $10,000
Jan 12 Fri 01:00 $108 Santa's Speed Racer $108 $10,000
Jan 12 Fri 10:30 #31: Winter Giveaway Series Grand Finale [Day 1] $250 $2,024,000
Jan 12 Fri 13:30 #31: Winter Giveaway Series Grand Finale [Day 1] $250 $2,024,000
Jan 12 Fri 14:00 $30 Daily Merrython $30 $15,000
Jan 12 Fri 15:30 $12.90 Bounty Hunters Holiday Special $12.90 $50,000
Jan 12 Fri 16:30 #31: Winter Giveaway Series Grand Finale [Day 1] $250 $2,024,000
Jan 12 Fri 17:00 $250 Daily Main Event [Winter Freezeout] $250 $25,000
Jan 12 Fri 18:00 $150 Rotating Main Event with Special Names $150 $100,000
Jan 12 Fri 18:00 $15 Rotating MIni Main Event with Special Names $15 $50,000
Jan 12 Fri 18:00 #30: $100 Friday Freezeout Closer $100 $100,000
Jan 12 Fri 19:30 $108 Bounty Hunters Brrrrr! [Winter Freezeout] $108 $20,000
Jan 12 Fri 19:30 #31: Winter Giveaway Series Grand Finale [Day 1] $250 $2,024,000
Jan 12 Fri 21:00 $215 Holiday Heater $215 $20,000
Jan 12 Fri 22:00 $64.50 Snowy SUPER SIX Bounty Turbo $64.50 $20,000
Jan 12 Fri 22:30 #31: Winter Giveaway Series Grand Finale [Day 1] $250 $2,024,000
Jan 12 Fri 23:00 $50 Holiday Saver [Winter Freezeout] $50 $10,000
Jan 13 Sat 00:00 $25 Winter Tick Tock BOOM $25 $10,000
Jan 13 Sat 01:00 $108 Santa's Speed Racer $108 $10,000
Jan 13 Sat 10:30 #31: Winter Giveaway Series Grand Finale [Day 1] $250 $2,024,000
Jan 13 Sat 13:30 #31: Winter Giveaway Series Grand Finale [Day 1] $250 $2,024,000
Jan 13 Sat 14:00 $30 Daily Merrython $30 $15,000
Jan 13 Sat 15:30 $12.90 Bounty Hunters Holiday Special $12.90 $50,000
Jan 13 Sat 16:30 #31: Winter Giveaway Series Grand Finale [Day 1] $250 $2,024,000
Jan 13 Sat 17:00 $250 Daily Main Event [Winter Freezeout] $250 $25,000
Jan 13 Sat 18:00 $150 Rotating Main Event with Special Names $150 $100,000
Jan 13 Sat 18:00 $15 Rotating MIni Main Event with Special Names $15 $50,000
Jan 13 Sat 19:30 $108 Bounty Hunters Brrrrr! [Winter Freezeout] $108 $20,000
Jan 13 Sat 19:30 #31: Winter Giveaway Series Grand Finale [Day 1] $250 $2,024,000
Jan 13 Sat 21:00 $215 Holiday Heater $215 $20,000
Jan 13 Sat 22:00 $64.50 Snowy SUPER SIX Bounty Turbo $64.50 $20,000
Jan 13 Sat 22:30 #31: Winter Giveaway Series Grand Finale [Day 1] $250 $2,024,000
Jan 13 Sat 23:00 $50 Holiday Saver [Winter Freezeout] $50 $10,000
Jan 14 Sun 00:00 $25 Winter Tick Tock BOOM $25 $10,000
Jan 14 Sun 01:00 $108 Santa's Speed Racer $108 $10,000
Jan 14 Sun 10:30 #31: Winter Giveaway Series Grand Finale [Day 1] $250 $2,024,000
Jan 14 Sun 12:00 $125 Sunday Winter Kick-Off $125 $75,000
Jan 14 Sun 13:00 $25 Sunday MERRY Monster Stack $25 $75,000
Jan 14 Sun 13:30 #31: Winter Giveaway Series Grand Finale [Day 1] $250 $2,024,000
Jan 14 Sun 14:00 $300 Sunday Merrython $300 $75,000
Jan 14 Sun 14:30 $85.50 Bounty Blast $85.50 $75,000
Jan 14 Sun 15:00 $125 Grand Winter Prix $125 $150,000
Jan 14 Sun 15:30 $44 Bounty Frozen FORTY STACK $44 $200,000
Jan 14 Sun 16:00 $88 Sunday CRAZY EIGHTS $88 $88,000
Jan 14 Sun 16:30 $54 Bounty Hunters MAIN EVENT $54 $500,000
Jan 14 Sun 16:30 #31: Winter Giveaway Series Grand Finale [Day 1] $250 $2,024,000
Jan 14 Sun 17:30 $215 Bounty Winter BIG GAMES $215 $300,000
Jan 14 Sun 17:40 $54 Omaholic Bounty SNOW Showdown $54 $25,000
Jan 14 Sun 18:00 $36.50 Sunday SNOW GIANT $36.50 $150,000
Jan 14 Sun 18:30 $320 GGMasters Bounty Winter FREEZEOUT $320 $350,000
Jan 14 Sun 19:00 $125 Sunday HUNDRED Stack $125 $150,000
Jan 14 Sun 19:30 $215 Omholic Bounty MAIN EVENT $215 $50,000
Jan 14 Sun 19:30 #31: Winter Giveaway Series Grand Finale [Day 1] $250 $2,024,000
Jan 14 Sun 20:00 $77 LUCKY SEVENS Superstack Turbo $77 $100,000
Jan 14 Sun 21:00 $250 Sunday Cooler [Bounty Turbo] $250 $125,000
Jan 14 Sun 22:00 $64.50 Snowy SUPER SIX Bounty Turbo $64.50 $60,000
Jan 14 Sun 22:30 #31: Winter Giveaway Series Grand Finale [Day 1] $250 $2,024,000
Jan 14 Sun 23:00 $50 Sunday Saver [Winter Freezeout] $50 $50,000
Jan 15 Mon 00:00 $25 Winter Tick Tock BOOM $25 $100,000
Jan 15 Mon 01:00 $108 Santa's Speed Racer $108 $125,000
Jan 15 Mon 01:30 #31: Winter Giveaway Series Grand Finale [Day 1] $250 $2,024,000
Jan 15 Mon 04:30 #31: Winter Giveaway Series Grand Finale [Day 1] $250 $2,024,000
Jan 15 Mon 07:30 #31: Winter Giveaway Series Grand Finale [Day 1] $250 $2,024,000
Jan 15 Mon 10:30 #31: Winter Giveaway Series Grand Finale [Day 1] $250 $2,024,000
Jan 15 Mon 13:30 #31: Winter Giveaway Series Grand Finale [Day 1] $250 $2,024,000
Jan 15 Mon 14:00 $30 Daily Merrython $30 $15,000
Jan 15 Mon 15:30 $12.90 Bounty Hunters Holiday Special $12.90 $50,000
Jan 15 Mon 15:30 #31: Winter Giveaway Series Grand Finale [Last Chance] $250 $2,024,000
Jan 15 Mon 17:00 $250 Daily Main Event [Winter Freezeout] $250 $25,000
Jan 15 Mon 18:00 $150 Rotating Main Event with Special Names $150 $100,000
Jan 15 Mon 18:00 $15 Rotating MIni Main Event with Special Names $15 $50,000
Jan 15 Mon 18:00 #31: Winter Giveaway Series Grand Finale [Final Day] $250 $2,024,000
Jan 15 Mon 19:30 $108 Bounty Hunters Brrrrr! [Winter Freezeout] $108 $20,000
Jan 15 Mon 21:00 $215 Holiday Heater $215 $20,000
Jan 15 Mon 22:00 $64.50 Snowy SUPER SIX Bounty Turbo $64.50 $20,000
Jan 15 Mon 23:00 $50 Holiday Saver [Winter Freezeout] $50 $10,000
Jan 16 Tue 00:00 $25 Winter Tick Tock BOOM $25 $10,000
Jan 16 Tue 01:00 $108 Santa's Speed Racer $108 $10,000
Chú ý: Tất cả các giải đấu trong loạt sự kiện Winter Giveaway Series sẽ có 50% phí tham gia áp dụng vào Fish Buffet.
giveaway special

Chương trình Khuyến mãi Đặc biệt Mùa Đông trị giá $23 triệu đô la

Kiểm tra chương trình Khuyến mãi Đặc biệt mùa Đông của chúng tôi. Với tổng giải thưởng cuối năm hấp dẫn lên đến $23 triệu và các chương trình khuyến mãi độc quyền, bạn có chắc muốn bỏ qua không?

1m flipout 15m giftbox january 2m

Câu Hỏi Thường Gặp (FAQ)

Nếu bạn cần hỗ trợ thêm, vui lòng liên hệ với đội ngũ hỗ trợ thân thiện của chúng tôi, những người sẵn sàng hỗ trợ bạn 24/7.

Bạn có thể đủ điều kiện tham gia Day 2 của Happy New Year Freeroll bao nhiêu lần?

Một khi bạn đã đủ điều kiện tham gia Day 2, bạn sẽ không thể đăng ký lại.

Sự khác biệt giữa "Dòng sự kiện Winter Giveaway Series 2023 cam kết 50 triệu đô la" và "Winter Giveaway 2023 cam kết 23 triệu đô la" là gì?

Dòng sự kiện Winter Giveaway Series cam kết 50 triệu đô la bao gồm các giải đấu với phần thưởng lớn, trong khi Winter Giveaway 23 triệu đô la là nơi bạn có thể nhận quà hàng ngày miễn phí, hoàn thành nhiệm vụ, tận hưởng các phần thưởng bổ sung và tham gia vào các giải freeroll và flipouts.

Kiểm tra trang $23M Winter Giveaway để biết thêm thông tin.

Bạn có thể tham gia bao nhiêu sự kiện Happy New Year Freeroll?

Bạn chỉ có thể tham gia một sự kiện Happy New Year Freeroll mỗi ngày.

Các điều khoản và điều kiện

  1. Người chơi phải từ 18 tuổi trở lên để tham gia chương trình khuyến mãi này.
  2. Tất cả các loại tiền tệ được tính bằng đô la Mỹ trừ khi có quy định khác.
  3. Xin lưu ý rằng các đảm bảo về giải thưởng của giải đấu có thể thay đổi và một số số tiền được liệt kê trên trang web này có thể không cập nhật. Vui lòng kiểm tra số tiền đảm bảo được liệt kê trong sảnh giải đấu của ứng dụng Natural8 để biết thông tin cập nhật về giải thưởng. Giải thưởng của giải đấu được trao theo quy trình thanh toán tiêu chuẩn của Natural8.
  4. Nếu một sự kiện trong loạt sự kiện Winter Giveaway không đạt được số tiền đảm bảo (GTD), thì 10% Add-on sẽ được thêm vào giải thưởng thực tế. Ví dụ, nếu một sự kiện với GTD là $100K kết thúc với giải thưởng là $95K, thì $10K sẽ được thêm vào, đưa tổng giải thưởng lên $105K.
  5. Natural8 có quyền điều tra bất kỳ người chơi nào bị nghi ngờ có hành vi gian lận và thực hiện bất kỳ hành động cần thiết nào. Trong trường hợp chơi nhiều tài khoản, săn tiền thưởng hoặc chơi xấu, Natural8 có quyền tước bất kỳ số tiền thưởng nào đã được thanh toán cùng với bất kỳ số dư tiền mặt còn lại nào mà không cần thông báo trước.
  6. Natural8 có quyền hủy bỏ hoặc sửa đổi giải đấu và các chương trình khuyến mãi liên quan vào bất kỳ thời điểm nào mà không cần thông báo trước, và tùy theo quyền hạn tuyệt đối và duy nhất của Natural8.
  7. Khuyến mãi này tuân theo các điều khoản và điều kiện của trang web Natural8.
  8. Natural8 ủng hộ đánh bạc an toàn. Nếu bạn cảm thấy bạn có vấn đề về đánh bạc trựng tuyến, hãy tìm kiếm thêm lời khuyên hoặc tư vấn tại www.begambleaware.org

Có Thể Bạn Sẽ Thích